Darstellungsparameter: Aktuell verwendete Einstellungen:
Skalierung der Graphiken ... ?
xyx+y,   Skalierungsfaktor:      Skalierung: Modus: x, Faktor: 1
Darstellungszeitraum ... ?
Vom - - bis: - -   Zeitraum: 10.06.2022 - 14.06.2022
Min/Max/Avg-Anzeige ... ?
Zeige MMA aktuell
Zeige MMA Monat
Zeige MMA alles
Zeige --A aktuell
Zeige --A Monat
Zeige --A alles
Keine MMA-Anzeige
MMA:
Average (ber die Originaldaten)
MMA-Basis: 10.06.2022 - 14.06.2022
Quicknavigation für Darstellung... ?
Tage:      1T, 2T, 3T, 5T -1T -2T -3T -5T +1T +2T +3T +5T
Wochen: 1W, 2W, 3W -1W -2W -3W +1W +2W +3W
Monate: 1M, 3M, 6M -1M -3M -6M +1M +3M +6M
Jahre:    1J, 3J, 5J, 10J -1J -3J -5J -10J +1J +3J +5J +10J
Nutze für die Darstellung ... ?
Originaldaten oder Mittelwerte auf ...
Stundenbasis Tagesbasis Wochenbasis
Monatsbasis Jahresbasis      Datenbasis: Original-Daten
Darstellen als:
Statistik (Auto) Statistik J:M      Darstellung:
Zur Graphik,    zurück zur Übersicht aller Sensoren.
 
Tabellarische Datenbersicht: ?
 
Sensor: Nr:Datum:Temp:Abs-Feuchte:Windchill:Wind:
Aussen-T/F 1 10-06-2022 00:00:00 11.3 C 9.49 g/m*3 11.3 C 0 km/h
2 10-06-2022 00:05:00 11.2 C 9.43 g/m*3 11.2 C 0 km/h
3 10-06-2022 00:10:00 11.2 C 9.43 g/m*3 11.2 C 0 km/h
4 10-06-2022 00:15:00 11.1 C 9.37 g/m*3 11.1 C 0 km/h
5 10-06-2022 00:20:00 11.1 C 9.37 g/m*3 11.1 C 0 km/h
6 10-06-2022 00:25:00 11.1 C 9.47 g/m*3 11.1 C 0 km/h
7 10-06-2022 00:30:00 11 C 9.41 g/m*3 11 C 0 km/h
8 10-06-2022 00:35:00 11 C 9.41 g/m*3 11 C 0 km/h
9 10-06-2022 00:40:00 10.9 C 9.35 g/m*3 10.9 C 0 km/h
10 10-06-2022 00:45:00 10.8 C 9.29 g/m*3 10.8 C 0 km/h
11 10-06-2022 00:50:00 10.8 C 9.29 g/m*3 10.29 C 6.4 km/h
12 10-06-2022 00:55:00 10.9 C 9.35 g/m*3 10.9 C 1.6 km/h
13 10-06-2022 01:00:00 10.9 C 9.35 g/m*3 10.9 C 3.2 km/h
14 10-06-2022 01:05:00 10.9 C 9.35 g/m*3 10.9 C 1.6 km/h
15 10-06-2022 01:10:00 10.9 C 9.35 g/m*3 10.9 C 0 km/h
16 10-06-2022 01:15:00 10.8 C 9.29 g/m*3 10.8 C 0 km/h
17 10-06-2022 01:20:00 10.8 C 9.29 g/m*3 10.8 C 0 km/h
18 10-06-2022 01:25:00 10.7 C 9.23 g/m*3 10.7 C 0 km/h
19 10-06-2022 01:30:00 10.6 C 9.17 g/m*3 10.6 C 0 km/h
20 10-06-2022 01:35:00 10.5 C 9.12 g/m*3 10.5 C 0 km/h
21 10-06-2022 01:40:00 10.4 C 9.06 g/m*3 10.4 C 0 km/h
22 10-06-2022 01:45:00 10.3 C 9 g/m*3 10.3 C 0 km/h
23 10-06-2022 01:50:00 10.3 C 9 g/m*3 10.3 C 0 km/h
24 10-06-2022 01:55:00 10.2 C 8.95 g/m*3 10.2 C 0 km/h
25 10-06-2022 02:00:00 10.2 C 8.95 g/m*3 10.2 C 0 km/h
Sensor: Nr:Datum:Temp:Abs-Feuchte:Windchill:Wind:
Aussen-T/F 26 10-06-2022 02:05:00 10.1 C 8.89 g/m*3 10.1 C 0 km/h
27 10-06-2022 02:10:00 10.1 C 8.89 g/m*3 10.1 C 0 km/h
28 10-06-2022 02:15:00 10 C 8.93 g/m*3 10 C 0 km/h
29 10-06-2022 02:20:00 10 C 8.93 g/m*3 10 C 0 km/h
30 10-06-2022 02:25:00 9.9 C 8.87 g/m*3 9.9 C 0 km/h
31 10-06-2022 02:30:00 9.9 C 8.78 g/m*3 9.9 C 0 km/h
32 10-06-2022 02:35:00 9.9 C 8.87 g/m*3 9.9 C 0 km/h
33 10-06-2022 02:40:00 10 C 8.93 g/m*3 10 C 0 km/h
34 10-06-2022 02:45:00 10 C 8.93 g/m*3 10 C 0 km/h
35 10-06-2022 02:50:00 9.9 C 8.87 g/m*3 9.9 C 0 km/h
36 10-06-2022 02:55:00 9.8 C 8.81 g/m*3 9.8 C 0 km/h
37 10-06-2022 03:00:00 9.8 C 8.81 g/m*3 9.8 C 0 km/h
38 10-06-2022 03:05:00 9.7 C 8.76 g/m*3 9.7 C 0 km/h
39 10-06-2022 03:10:00 9.7 C 8.76 g/m*3 9.7 C 0 km/h
40 10-06-2022 03:15:00 9.6 C 8.7 g/m*3 9.6 C 0 km/h
41 10-06-2022 03:20:00 9.6 C 8.7 g/m*3 9.6 C 0 km/h
42 10-06-2022 03:25:00 9.6 C 8.7 g/m*3 9.6 C 0 km/h
43 10-06-2022 03:30:00 9.6 C 8.7 g/m*3 9.6 C 1.6 km/h
44 10-06-2022 03:35:00 9.5 C 8.65 g/m*3 9.5 C 0 km/h
45 10-06-2022 03:40:00 9.4 C 8.59 g/m*3 9.4 C 0 km/h
46 10-06-2022 03:45:00 9.4 C 8.59 g/m*3 9.4 C 0 km/h
47 10-06-2022 03:50:00 9.3 C 8.54 g/m*3 9.3 C 0 km/h
48 10-06-2022 03:55:00 9.3 C 8.54 g/m*3 9.3 C 0 km/h
49 10-06-2022 04:00:00 9.3 C 8.54 g/m*3 9.3 C 0 km/h
50 10-06-2022 04:05:00 9.4 C 8.59 g/m*3 9.4 C 0 km/h
Sensor: Nr:Datum:Temp:Abs-Feuchte:Windchill:Wind:
Aussen-T/F 51 10-06-2022 04:10:00 9.4 C 8.59 g/m*3 9.4 C 0 km/h
52 10-06-2022 04:15:00 9.3 C 8.54 g/m*3 9.3 C 0 km/h
53 10-06-2022 04:20:00 9.3 C 8.54 g/m*3 9.3 C 0 km/h
54 10-06-2022 04:25:00 9.4 C 8.59 g/m*3 9.4 C 0 km/h
55 10-06-2022 04:30:00 9.4 C 8.59 g/m*3 9.4 C 0 km/h
56 10-06-2022 04:35:00 9.4 C 8.68 g/m*3 9.4 C 0 km/h
57 10-06-2022 04:40:00 9.4 C 8.59 g/m*3 9.4 C 0 km/h
58 10-06-2022 04:45:00 9.3 C 8.54 g/m*3 9.3 C 0 km/h
59 10-06-2022 04:50:00 9.2 C 8.48 g/m*3 9.2 C 0 km/h
60 10-06-2022 04:55:00 9.2 C 8.48 g/m*3 9.2 C 0 km/h
61 10-06-2022 05:00:00 9.1 C 8.43 g/m*3 9.1 C 0 km/h
62 10-06-2022 05:05:00 8.9 C 8.32 g/m*3 8.9 C 0 km/h
63 10-06-2022 05:10:00 8.8 C 8.27 g/m*3 8.8 C 0 km/h
64 10-06-2022 05:15:00 8.8 C 8.27 g/m*3 8.8 C 0 km/h
65 10-06-2022 05:20:00 8.8 C 8.27 g/m*3 8.8 C 0 km/h
66 10-06-2022 05:25:00 8.7 C 8.22 g/m*3 8.7 C 0 km/h
67 10-06-2022 05:30:00 8.7 C 8.22 g/m*3 8.7 C 0 km/h
68 10-06-2022 05:35:00 8.7 C 8.22 g/m*3 8.7 C 0 km/h
69 10-06-2022 05:40:00 8.7 C 8.22 g/m*3 8.7 C 0 km/h
70 10-06-2022 05:45:00 8.7 C 8.22 g/m*3 8.7 C 0 km/h
71 10-06-2022 05:50:00 8.8 C 8.27 g/m*3 8.8 C 0 km/h
72 10-06-2022 05:55:00 8.8 C 8.27 g/m*3 8.8 C 0 km/h
73 10-06-2022 06:00:00 8.8 C 8.36 g/m*3 8.8 C 0 km/h
74 10-06-2022 06:05:00 8.8 C 8.36 g/m*3 8.8 C 0 km/h
75 10-06-2022 06:10:00 8.8 C 8.36 g/m*3 8.8 C 0 km/h
Sensor: Nr:Datum:Temp:Abs-Feuchte:Windchill:Wind:
Aussen-T/F 76 10-06-2022 06:15:00 8.8 C 8.36 g/m*3 8.8 C 0 km/h
77 10-06-2022 06:20:00 8.8 C 8.36 g/m*3 8.8 C 0 km/h
78 10-06-2022 06:25:00 8.9 C 8.41 g/m*3 8.9 C 0 km/h
79 10-06-2022 06:30:00 8.9 C 8.41 g/m*3 8.9 C 0 km/h
80 10-06-2022 06:35:00 9.1 C 8.52 g/m*3 9.1 C 0 km/h
81 10-06-2022 06:40:00 9.2 C 8.57 g/m*3 9.2 C 0 km/h
82 10-06-2022 06:45:00 9.4 C 8.68 g/m*3 9.4 C 0 km/h
83 10-06-2022 06:50:00 9.7 C 8.85 g/m*3 9.7 C 0 km/h
84 10-06-2022 06:55:00 9.9 C 8.96 g/m*3 9.9 C 0 km/h
85 10-06-2022 07:00:00 10.1 C 9.17 g/m*3 10.1 C 0 km/h
86 10-06-2022 07:05:00 10.2 C 9.14 g/m*3 10.2 C 0 km/h
87 10-06-2022 07:10:00 10.3 C 9.19 g/m*3 10.3 C 0 km/h
88 10-06-2022 07:15:00 10.3 C 9.29 g/m*3 10.3 C 0 km/h
89 10-06-2022 07:20:00 10.4 C 9.35 g/m*3 10.4 C 0 km/h
90 10-06-2022 07:25:00 10.5 C 9.31 g/m*3 10.5 C 0 km/h
91 10-06-2022 07:30:00 10.6 C 9.37 g/m*3 10.6 C 1.6 km/h
92 10-06-2022 07:35:00 10.6 C 9.37 g/m*3 10.6 C 0 km/h
93 10-06-2022 07:40:00 10.6 C 9.37 g/m*3 10.6 C 0 km/h
94 10-06-2022 07:45:00 10.7 C 9.43 g/m*3 10.7 C 0 km/h
95 10-06-2022 07:50:00 10.8 C 9.59 g/m*3 10.8 C 0 km/h
96 10-06-2022 07:55:00 10.9 C 9.55 g/m*3 10.9 C 1.6 km/h
97 10-06-2022 08:00:00 11 C 9.61 g/m*3 11 C 0 km/h
98 10-06-2022 08:05:00 11.2 C 9.83 g/m*3 11.2 C 0 km/h
99 10-06-2022 08:10:00 11.2 C 9.83 g/m*3 11.2 C 0 km/h
100 10-06-2022 08:15:00 11.3 C 9.79 g/m*3 11.3 C 0 km/h
Sensor: Nr:Datum:Temp:Abs-Feuchte:Windchill:Wind:
Aussen-T/F 101 10-06-2022 08:20:00 11.4 C 9.96 g/m*3 11.4 C 0 km/h
102 10-06-2022 08:25:00 11.4 C 9.96 g/m*3 11.4 C 0 km/h
103 10-06-2022 08:30:00 11.3 C 9.89 g/m*3 11.3 C 0 km/h
104 10-06-2022 08:35:00 11.4 C 9.96 g/m*3 11.4 C 0 km/h
105 10-06-2022 08:40:00 11.4 C 9.96 g/m*3 11.4 C 0 km/h
106 10-06-2022 08:45:00 11.4 C 9.96 g/m*3 11.4 C 0 km/h
107 10-06-2022 08:50:00 11.6 C 9.98 g/m*3 11.6 C 0 km/h
108 10-06-2022 08:55:00 11.7 C 10.04 g/m*3 11.7 C 0 km/h
109 10-06-2022 09:00:00 11.8 C 10.21 g/m*3 11.8 C 0 km/h
110 10-06-2022 09:05:00 12.1 C 10.4 g/m*3 12.1 C 0 km/h
111 10-06-2022 09:10:00 12.5 C 10.66 g/m*3 12.5 C 0 km/h
112 10-06-2022 09:15:00 12.8 C 10.87 g/m*3 12.8 C 0 km/h
113 10-06-2022 09:20:00 12.9 C 10.93 g/m*3 12.9 C 0 km/h
114 10-06-2022 09:25:00 13.1 C 11.07 g/m*3 13.1 C 0 km/h
115 10-06-2022 09:30:00 13.3 C 11.21 g/m*3 13.3 C 0 km/h
116 10-06-2022 09:35:00 13.5 C 11.35 g/m*3 13.5 C 0 km/h
117 10-06-2022 09:40:00 13.6 C 11.42 g/m*3 13.6 C 0 km/h
118 10-06-2022 09:45:00 13.7 C 11.49 g/m*3 13.7 C 0 km/h
119 10-06-2022 09:50:00 13.9 C 11.63 g/m*3 13.9 C 0 km/h
120 10-06-2022 09:55:00 14 C 11.7 g/m*3 14 C 0 km/h
121 10-06-2022 10:00:00 14.1 C 11.77 g/m*3 14.1 C 0 km/h
122 10-06-2022 10:05:00 14.2 C 11.84 g/m*3 14.2 C 0 km/h
123 10-06-2022 10:10:00 14.4 C 11.99 g/m*3 14.4 C 0 km/h
124 10-06-2022 10:15:00 14.7 C 12.21 g/m*3 14.7 C 0 km/h
125 10-06-2022 10:20:00 14.9 C 12.36 g/m*3 14.9 C 0 km/h
Sensor: Nr:Datum:Temp:Abs-Feuchte:Windchill:Wind:
Aussen-T/F 126 10-06-2022 10:25:00 15.1 C 12.51 g/m*3 15.1 C 0 km/h
127 10-06-2022 10:30:00 15.3 C 12.67 g/m*3 15.3 C 0 km/h
128 10-06-2022 10:35:00 15.4 C 12.61 g/m*3 15.4 C 0 km/h
129 10-06-2022 10:40:00 15.5 C 12.69 g/m*3 15.5 C 0 km/h
130 10-06-2022 10:45:00 15.8 C 12.79 g/m*3 15.8 C 0 km/h
131 10-06-2022 10:50:00 16.1 C 13.16 g/m*3 16.1 C 0 km/h
132 10-06-2022 10:55:00 16.4 C 13.12 g/m*3 16.4 C 0 km/h
133 10-06-2022 11:00:00 16.7 C 13.22 g/m*3 16.7 C 0 km/h
134 10-06-2022 11:05:00 17.2 C 13.18 g/m*3 17.2 C 0 km/h
135 10-06-2022 11:10:00 18.2 C 12.43 g/m*3 18.2 C 8.1 km/h
136 10-06-2022 11:15:00 19.3 C 12.61 g/m*3 19.3 C 9.7 km/h
137 10-06-2022 11:20:00 20 C 12.1 g/m*3 20 C 12.9 km/h
138 10-06-2022 11:25:00 20.4 C 12.56 g/m*3 20.4 C 6.4 km/h
139 10-06-2022 11:30:00 20.8 C 12.13 g/m*3 20.8 C 3.2 km/h
140 10-06-2022 11:35:00 21.1 C 12.16 g/m*3 21.1 C 11.3 km/h
141 10-06-2022 11:40:00 21.2 C 12.23 g/m*3 21.2 C 9.7 km/h
142 10-06-2022 11:45:00 21.4 C 12.19 g/m*3 21.4 C 3.2 km/h
143 10-06-2022 11:50:00 21.6 C 11.57 g/m*3 21.6 C 9.7 km/h
144 10-06-2022 11:55:00 21.7 C 10.87 g/m*3 21.7 C 11.3 km/h
145 10-06-2022 12:00:00 21.7 C 11.45 g/m*3 21.7 C 11.3 km/h
146 10-06-2022 12:05:00 21.6 C 11.38 g/m*3 21.6 C 11.3 km/h
147 10-06-2022 12:10:00 21.7 C 11.64 g/m*3 21.7 C 8.1 km/h
148 10-06-2022 12:15:00 21.8 C 11.32 g/m*3 21.8 C 11.3 km/h
149 10-06-2022 12:20:00 22.1 C 11.91 g/m*3 22.1 C 11.3 km/h
150 10-06-2022 12:25:00 22.4 C 11.52 g/m*3 22.4 C 12.9 km/h
Sensor: Nr:Datum:Temp:Abs-Feuchte:Windchill:Wind:
Aussen-T/F 151 10-06-2022 12:30:00 22.6 C 11.85 g/m*3 22.6 C 11.3 km/h
152 10-06-2022 12:35:00 22.6 C 11.85 g/m*3 22.6 C 9.7 km/h
153 10-06-2022 12:40:00 22.5 C 11.78 g/m*3 22.5 C 12.9 km/h
154 10-06-2022 12:45:00 22.5 C 11.98 g/m*3 22.5 C 9.7 km/h
155 10-06-2022 12:50:00 22.5 C 11.98 g/m*3 22.5 C 9.7 km/h
156 10-06-2022 12:55:00 22.4 C 12.11 g/m*3 22.4 C 11.3 km/h
157 10-06-2022 13:00:00 22.4 C 11.72 g/m*3 22.4 C 8.1 km/h
158 10-06-2022 13:05:00 22.4 C 10.92 g/m*3 22.4 C 6.4 km/h
159 10-06-2022 13:10:00 22.7 C 10.91 g/m*3 22.7 C 12.9 km/h
160 10-06-2022 13:15:00 22.8 C 11.18 g/m*3 22.8 C 11.3 km/h
161 10-06-2022 13:20:00 23.1 C 11.58 g/m*3 23.1 C 8.1 km/h
162 10-06-2022 13:25:00 23.3 C 11.5 g/m*3 23.3 C 9.7 km/h
163 10-06-2022 13:30:00 23.6 C 10.63 g/m*3 23.6 C 11.3 km/h
164 10-06-2022 13:35:00 23.6 C 11.7 g/m*3 23.6 C 6.4 km/h
165 10-06-2022 13:40:00 23.7 C 10.91 g/m*3 23.7 C 12.9 km/h
166 10-06-2022 13:45:00 23.8 C 11.4 g/m*3 23.8 C 11.3 km/h
167 10-06-2022 13:50:00 23.8 C 10.33 g/m*3 23.8 C 12.9 km/h
168 10-06-2022 13:55:00 23.8 C 10.54 g/m*3 23.8 C 11.3 km/h
169 10-06-2022 14:00:00 23.8 C 10.76 g/m*3 23.8 C 12.9 km/h
170 10-06-2022 14:05:00 23.8 C 10.97 g/m*3 23.8 C 12.9 km/h
171 10-06-2022 14:10:00 23.9 C 10.6 g/m*3 23.9 C 11.3 km/h
172 10-06-2022 14:15:00 24.1 C 10.5 g/m*3 24.1 C 12.9 km/h
173 10-06-2022 14:20:00 24.2 C 11.22 g/m*3 24.2 C 6.4 km/h
174 10-06-2022 14:25:00 24.5 C 11.41 g/m*3 24.5 C 4.8 km/h
175 10-06-2022 14:30:00 24.7 C 10.86 g/m*3 24.7 C 14.5 km/h
Sensor: Nr:Datum:Temp:Abs-Feuchte:Windchill:Wind:
Aussen-T/F 176 10-06-2022 14:35:00 24.6 C 11.25 g/m*3 24.6 C 14.5 km/h
177 10-06-2022 14:40:00 24.6 C 10.8 g/m*3 24.6 C 9.7 km/h
178 10-06-2022 14:45:00 24.4 C 11.35 g/m*3 24.4 C 12.9 km/h
179 10-06-2022 14:50:00 24.4 C 11.13 g/m*3 24.4 C 11.3 km/h
180 10-06-2022 14:55:00 24.6 C 11.48 g/m*3 24.6 C 12.9 km/h
181 10-06-2022 15:00:00 24.7 C 11.32 g/m*3 24.7 C 8.1 km/h
182 10-06-2022 15:05:00 24.6 C 11.48 g/m*3 24.6 C 9.7 km/h
183 10-06-2022 15:10:00 24.6 C 11.7 g/m*3 24.6 C 4.8 km/h
184 10-06-2022 15:15:00 24.4 C 11.35 g/m*3 24.4 C 9.7 km/h
185 10-06-2022 15:20:00 24.4 C 11.79 g/m*3 24.4 C 6.4 km/h
186 10-06-2022 15:25:00 24.4 C 11.57 g/m*3 24.4 C 9.7 km/h
187 10-06-2022 15:30:00 24.3 C 11.73 g/m*3 24.3 C 9.7 km/h
188 10-06-2022 15:35:00 24.3 C 12.39 g/m*3 24.3 C 6.4 km/h
189 10-06-2022 15:40:00 24.2 C 11.88 g/m*3 24.2 C 11.3 km/h
190 10-06-2022 15:45:00 24.2 C 12.32 g/m*3 24.2 C 3.2 km/h
191 10-06-2022 15:50:00 24.1 C 11.6 g/m*3 24.1 C 3.2 km/h
192 10-06-2022 15:55:00 24.1 C 13.13 g/m*3 24.1 C 3.2 km/h
193 10-06-2022 16:00:00 24 C 11.53 g/m*3 24 C 8.1 km/h
194 10-06-2022 16:05:00 23.9 C 12.11 g/m*3 23.9 C 8.1 km/h
195 10-06-2022 16:10:00 24 C 13.27 g/m*3 24 C 4.8 km/h
196 10-06-2022 16:15:00 23.9 C 12.76 g/m*3 23.9 C 4.8 km/h
197 10-06-2022 16:20:00 23.8 C 11.83 g/m*3 23.8 C 8.1 km/h
198 10-06-2022 16:25:00 23.7 C 12.41 g/m*3 23.7 C 1.6 km/h
199 10-06-2022 16:30:00 23.7 C 12.19 g/m*3 23.7 C 6.4 km/h
200 10-06-2022 16:35:00 23.6 C 12.34 g/m*3 23.6 C 4.8 km/h
Sensor: Nr:Datum:Temp:Abs-Feuchte:Windchill:Wind:
Aussen-T/F 201 10-06-2022 16:40:00 23.6 C 13.19 g/m*3 23.6 C 6.4 km/h
202 10-06-2022 16:45:00 23.6 C 13.19 g/m*3 23.6 C 4.8 km/h
203 10-06-2022 16:50:00 23.6 C 12.97 g/m*3 23.6 C 4.8 km/h
204 10-06-2022 16:55:00 23.6 C 12.76 g/m*3 23.6 C 6.4 km/h
205 10-06-2022 17:00:00 23.7 C 11.98 g/m*3 23.7 C 8.1 km/h
206 10-06-2022 17:05:00 23.7 C 12.19 g/m*3 23.7 C 9.7 km/h
207 10-06-2022 17:10:00 23.7 C 12.83 g/m*3 23.7 C 8.1 km/h
208 10-06-2022 17:15:00 23.8 C 12.69 g/m*3 23.8 C 3.2 km/h
209 10-06-2022 17:20:00 23.8 C 12.26 g/m*3 23.8 C 8.1 km/h
210 10-06-2022 17:25:00 23.7 C 12.83 g/m*3 23.7 C 4.8 km/h
211 10-06-2022 17:30:00 23.7 C 13.05 g/m*3 23.7 C 8.1 km/h
212 10-06-2022 17:35:00 23.6 C 12.55 g/m*3 23.6 C 6.4 km/h
213 10-06-2022 17:40:00 23.7 C 13.26 g/m*3 23.7 C 0 km/h
214 10-06-2022 17:45:00 23.6 C 13.4 g/m*3 23.6 C 0 km/h
215 10-06-2022 17:50:00 23.6 C 13.4 g/m*3 23.6 C 0 km/h
216 10-06-2022 17:55:00 23.4 C 13.88 g/m*3 23.4 C 4.8 km/h
217 10-06-2022 18:00:00 23.4 C 13.04 g/m*3 23.4 C 3.2 km/h
218 10-06-2022 18:05:00 23.3 C 13.8 g/m*3 23.3 C 6.4 km/h
219 10-06-2022 18:10:00 23.3 C 12.55 g/m*3 23.3 C 6.4 km/h
220 10-06-2022 18:15:00 23.3 C 12.96 g/m*3 23.3 C 4.8 km/h
221 10-06-2022 18:20:00 23.3 C 14.43 g/m*3 23.3 C 0 km/h
222 10-06-2022 18:25:00 23.3 C 13.59 g/m*3 23.3 C 0 km/h
223 10-06-2022 18:30:00 23.3 C 14.22 g/m*3 23.3 C 1.6 km/h
224 10-06-2022 18:35:00 23.2 C 13.72 g/m*3 23.2 C 4.8 km/h
225 10-06-2022 18:40:00 23.1 C 14.26 g/m*3 23.1 C 3.2 km/h
Sensor: Nr:Datum:Temp:Abs-Feuchte:Windchill:Wind:
Aussen-T/F 226 10-06-2022 18:45:00 23 C 14.39 g/m*3 23 C 3.2 km/h
227 10-06-2022 18:50:00 22.9 C 14.31 g/m*3 22.9 C 1.6 km/h
228 10-06-2022 18:55:00 22.8 C 13.82 g/m*3 22.8 C 1.6 km/h
229 10-06-2022 19:00:00 22.7 C 14.34 g/m*3 22.7 C 3.2 km/h
230 10-06-2022 19:05:00 22.7 C 14.75 g/m*3 22.7 C 0 km/h
231 10-06-2022 19:10:00 22.7 C 14.75 g/m*3 22.7 C 1.6 km/h
232 10-06-2022 19:15:00 22.6 C 14.66 g/m*3 22.6 C 1.6 km/h
233 10-06-2022 19:20:00 22.6 C 14.87 g/m*3 22.6 C 1.6 km/h
234 10-06-2022 19:25:00 22.5 C 14.98 g/m*3 22.5 C 0 km/h
235 10-06-2022 19:30:00 22.4 C 14.7 g/m*3 22.4 C 3.2 km/h
236 10-06-2022 19:35:00 22.3 C 13.82 g/m*3 22.3 C 4.8 km/h
237 10-06-2022 19:40:00 22.4 C 13.7 g/m*3 22.4 C 3.2 km/h
238 10-06-2022 19:45:00 22.8 C 13.82 g/m*3 22.8 C 6.4 km/h
239 10-06-2022 19:50:00 22.9 C 12.47 g/m*3 22.9 C 9.7 km/h
240 10-06-2022 19:55:00 23 C 12.74 g/m*3 23 C 8.1 km/h
241 10-06-2022 20:00:00 23 C 13.36 g/m*3 23 C 4.8 km/h
242 10-06-2022 20:05:00 22.9 C 14.31 g/m*3 22.9 C 3.2 km/h
243 10-06-2022 20:10:00 22.7 C 14.14 g/m*3 22.7 C 0 km/h
244 10-06-2022 20:15:00 22.4 C 14.3 g/m*3 22.4 C 0 km/h
245 10-06-2022 20:20:00 22.2 C 14.14 g/m*3 22.2 C 0 km/h
246 10-06-2022 20:25:00 22.1 C 14.05 g/m*3 22.1 C 0 km/h
247 10-06-2022 20:30:00 21.8 C 14.01 g/m*3 21.8 C 0 km/h
248 10-06-2022 20:35:00 21.4 C 13.5 g/m*3 21.4 C 8.1 km/h
249 10-06-2022 20:40:00 21.1 C 13.63 g/m*3 21.1 C 4.8 km/h
250 10-06-2022 20:45:00 20.7 C 13.5 g/m*3 20.7 C 4.8 km/h
Sensor: Nr:Datum:Temp:Abs-Feuchte:Windchill:Wind:
Aussen-T/F 251 10-06-2022 20:50:00 20.2 C 13.46 g/m*3 20.2 C 3.2 km/h
252 10-06-2022 20:55:00 19.8 C 13.32 g/m*3 19.8 C 4.8 km/h
253 10-06-2022 21:00:00 19.5 C 13.09 g/m*3 19.5 C 6.4 km/h
254 10-06-2022 21:05:00 19.2 C 13.19 g/m*3 19.2 C 3.2 km/h
255 10-06-2022 21:10:00 18.9 C 12.96 g/m*3 18.9 C 0 km/h
256 10-06-2022 21:15:00 18.6 C 12.89 g/m*3 18.6 C 0 km/h
257 10-06-2022 21:20:00 18.4 C 12.74 g/m*3 18.4 C 4.8 km/h
258 10-06-2022 21:25:00 18.2 C 12.75 g/m*3 18.2 C 1.6 km/h
259 10-06-2022 21:30:00 17.9 C 12.67 g/m*3 17.9 C 0 km/h
260 10-06-2022 21:35:00 17.7 C 12.52 g/m*3 17.7 C 0 km/h
261 10-06-2022 21:40:00 17.6 C 12.6 g/m*3 17.6 C 0 km/h
262 10-06-2022 21:45:00 17.3 C 12.37 g/m*3 17.3 C 0 km/h
263 10-06-2022 21:50:00 17.2 C 12.3 g/m*3 17.2 C 0 km/h
264 10-06-2022 21:55:00 17 C 12.3 g/m*3 17 C 0 km/h
265 10-06-2022 22:00:00 16.8 C 12.15 g/m*3 16.8 C 0 km/h
266 10-06-2022 22:05:00 16.7 C 12.08 g/m*3 16.7 C 0 km/h
267 10-06-2022 22:10:00 16.5 C 12.08 g/m*3 16.5 C 0 km/h
268 10-06-2022 22:15:00 16.4 C 12 g/m*3 16.4 C 0 km/h
269 10-06-2022 22:20:00 16.2 C 11.86 g/m*3 16.2 C 0 km/h
270 10-06-2022 22:25:00 16.1 C 11.79 g/m*3 16.1 C 0 km/h
271 10-06-2022 22:30:00 15.9 C 11.78 g/m*3 15.9 C 0 km/h
272 10-06-2022 22:35:00 15.8 C 11.71 g/m*3 15.8 C 0 km/h
273 10-06-2022 22:40:00 15.7 C 11.77 g/m*3 15.7 C 0 km/h
274 10-06-2022 22:45:00 15.5 C 11.63 g/m*3 15.5 C 0 km/h
275 10-06-2022 22:50:00 15.3 C 11.49 g/m*3 15.3 C 0 km/h
Sensor: Nr:Datum:Temp:Abs-Feuchte:Windchill:Wind:
Aussen-T/F 276 10-06-2022 22:55:00 15.3 C 11.49 g/m*3 15.3 C 0 km/h
277 10-06-2022 23:00:00 15.1 C 11.35 g/m*3 15.1 C 0 km/h
278 10-06-2022 23:05:00 15 C 11.41 g/m*3 15 C 0 km/h
279 10-06-2022 23:10:00 14.9 C 11.34 g/m*3 14.9 C 0 km/h
280 10-06-2022 23:15:00 14.8 C 11.27 g/m*3 14.8 C 0 km/h
281 10-06-2022 23:20:00 14.7 C 11.33 g/m*3 14.7 C 0 km/h
282 10-06-2022 23:25:00 14.6 C 11.26 g/m*3 14.6 C 0 km/h
283 10-06-2022 23:30:00 14.5 C 11.19 g/m*3 14.5 C 0 km/h
284 10-06-2022 23:35:00 14.4 C 11.13 g/m*3 14.4 C 0 km/h
285 10-06-2022 23:40:00 14.3 C 11.06 g/m*3 14.3 C 0 km/h
286 10-06-2022 23:45:00 14.3 C 11.06 g/m*3 14.3 C 0 km/h
287 10-06-2022 23:50:00 14.2 C 10.99 g/m*3 14.2 C 0 km/h
288 10-06-2022 23:55:00 14.1 C 10.92 g/m*3 14.1 C 0 km/h
289 11-06-2022 00:00:00 14 C 10.98 g/m*3 14 C 0 km/h
290 11-06-2022 00:05:00 13.9 C 10.79 g/m*3 13.9 C 0 km/h
291 11-06-2022 00:10:00 13.8 C 10.84 g/m*3 13.8 C 0 km/h
292 11-06-2022 00:15:00 13.8 C 10.84 g/m*3 13.8 C 0 km/h
293 11-06-2022 00:20:00 13.7 C 10.78 g/m*3 13.7 C 0 km/h
294 11-06-2022 00:25:00 13.7 C 10.78 g/m*3 13.7 C 0 km/h
295 11-06-2022 00:30:00 13.6 C 10.71 g/m*3 13.6 C 0 km/h
296 11-06-2022 00:35:00 13.5 C 10.64 g/m*3 13.5 C 0 km/h
297 11-06-2022 00:40:00 13.4 C 10.58 g/m*3 13.4 C 0 km/h
298 11-06-2022 00:45:00 13.3 C 10.51 g/m*3 13.3 C 0 km/h
299 11-06-2022 00:50:00 13.3 C 10.63 g/m*3 13.3 C 0 km/h
300 11-06-2022 00:55:00 13.2 C 10.56 g/m*3 13.2 C 0 km/h
Sensor: Nr:Datum:Temp:Abs-Feuchte:Windchill:Wind:
Aussen-T/F 301 11-06-2022 01:00:00 13.2 C 10.56 g/m*3 13.2 C 0 km/h
302 11-06-2022 01:05:00 13.1 C 10.5 g/m*3 13.1 C 0 km/h
303 11-06-2022 01:10:00 13.1 C 10.5 g/m*3 13.1 C 0 km/h
304 11-06-2022 01:15:00 13 C 10.43 g/m*3 13 C 0 km/h
305 11-06-2022 01:20:00 12.9 C 10.37 g/m*3 12.9 C 0 km/h
306 11-06-2022 01:25:00 12.9 C 10.48 g/m*3 12.9 C 0 km/h
307 11-06-2022 01:30:00 12.9 C 10.48 g/m*3 12.9 C 0 km/h
308 11-06-2022 01:35:00 12.8 C 10.42 g/m*3 12.8 C 0 km/h
309 11-06-2022 01:40:00 12.8 C 10.42 g/m*3 12.8 C 0 km/h
310 11-06-2022 01:45:00 12.7 C 10.35 g/m*3 12.7 C 0 km/h
311 11-06-2022 01:50:00 12.7 C 10.35 g/m*3 12.7 C 0 km/h
312 11-06-2022 01:55:00 12.7 C 10.35 g/m*3 12.7 C 0 km/h
313 11-06-2022 02:00:00 12.7 C 10.35 g/m*3 12.7 C 0 km/h
314 11-06-2022 02:05:00 12.7 C 10.46 g/m*3 12.7 C 0 km/h
315 11-06-2022 02:10:00 12.7 C 10.46 g/m*3 12.7 C 0 km/h
316 11-06-2022 02:15:00 12.7 C 10.46 g/m*3 12.7 C 0 km/h
317 11-06-2022 02:20:00 12.7 C 10.46 g/m*3 12.7 C 0 km/h
318 11-06-2022 02:25:00 12.7 C 10.46 g/m*3 12.7 C 0 km/h
319 11-06-2022 02:30:00 12.6 C 10.4 g/m*3 12.6 C 1.6 km/h
320 11-06-2022 02:35:00 12.6 C 10.4 g/m*3 12.6 C 1.6 km/h
321 11-06-2022 02:40:00 12.6 C 10.4 g/m*3 12.6 C 0 km/h
322 11-06-2022 02:45:00 12.5 C 10.33 g/m*3 12.5 C 0 km/h
323 11-06-2022 02:50:00 12.4 C 10.27 g/m*3 12.4 C 0 km/h
324 11-06-2022 02:55:00 12.3 C 10.21 g/m*3 12.3 C 0 km/h
325 11-06-2022 03:00:00 12.3 C 10.21 g/m*3 12.3 C 0 km/h
Sensor: Nr:Datum:Temp:Abs-Feuchte:Windchill:Wind:
Aussen-T/F 326 11-06-2022 03:05:00 12.2 C 10.14 g/m*3 12.2 C 1.6 km/h
327 11-06-2022 03:10:00 12.2 C 10.14 g/m*3 12.2 C 0 km/h
328 11-06-2022 03:15:00 12.2 C 10.14 g/m*3 12.2 C 0 km/h
329 11-06-2022 03:20:00 12.2 C 10.14 g/m*3 12.2 C 1.6 km/h
330 11-06-2022 03:25:00 12.2 C 10.14 g/m*3 12.2 C 0 km/h
331 11-06-2022 03:30:00 12.2 C 10.14 g/m*3 12.2 C 0 km/h
332 11-06-2022 03:35:00 12.2 C 10.14 g/m*3 12.2 C 0 km/h
333 11-06-2022 03:40:00 12.1 C 10.08 g/m*3 12.1 C 0 km/h
334 11-06-2022 03:45:00 12 C 10.02 g/m*3 12 C 0 km/h
335 11-06-2022 03:50:00 11.9 C 9.96 g/m*3 11.9 C 0 km/h
336 11-06-2022 03:55:00 11.8 C 9.89 g/m*3 11.8 C 0 km/h
337 11-06-2022 04:00:00 11.7 C 9.83 g/m*3 11.7 C 0 km/h
338 11-06-2022 04:05:00 11.7 C 9.83 g/m*3 11.7 C 0 km/h
339 11-06-2022 04:10:00 11.6 C 9.77 g/m*3 11.6 C 1.6 km/h
340 11-06-2022 04:15:00 11.7 C 9.83 g/m*3 11.7 C 4.8 km/h
341 11-06-2022 04:20:00 11.8 C 10 g/m*3 11.8 C 4.8 km/h
342 11-06-2022 04:25:00 11.8 C 10 g/m*3 11.8 C 0 km/h
343 11-06-2022 04:30:00 11.8 C 10 g/m*3 11.8 C 0 km/h
344 11-06-2022 04:35:00 11.9 C 10.06 g/m*3 11.9 C 0 km/h
345 11-06-2022 04:40:00 11.9 C 10.06 g/m*3 11.9 C 0 km/h
346 11-06-2022 04:45:00 11.9 C 10.06 g/m*3 11.9 C 1.6 km/h
347 11-06-2022 04:50:00 12 C 10.12 g/m*3 12 C 1.6 km/h
348 11-06-2022 04:55:00 12.1 C 10.19 g/m*3 12.1 C 3.2 km/h
349 11-06-2022 05:00:00 12.2 C 10.25 g/m*3 12.2 C 0 km/h
350 11-06-2022 05:05:00 12.3 C 10.32 g/m*3 12.3 C 0 km/h
Sensor: Nr:Datum:Temp:Abs-Feuchte:Windchill:Wind:
Aussen-T/F 351 11-06-2022 05:10:00 12.3 C 10.32 g/m*3 12.3 C 0 km/h
352 11-06-2022 05:15:00 12.3 C 10.32 g/m*3 12.3 C 0 km/h
353 11-06-2022 05:20:00 12.4 C 10.38 g/m*3 12.4 C 0 km/h
354 11-06-2022 05:25:00 12.4 C 10.38 g/m*3 12.4 C 0 km/h
355 11-06-2022 05:30:00 12.4 C 10.38 g/m*3 12.4 C 0 km/h
356 11-06-2022 05:35:00 12.5 C 10.44 g/m*3 12.5 C 0 km/h
357 11-06-2022 05:40:00 12.6 C 10.51 g/m*3 12.6 C 0 km/h
358 11-06-2022 05:45:00 12.6 C 10.62 g/m*3 12.6 C 0 km/h
359 11-06-2022 05:50:00 12.7 C 10.69 g/m*3 12.7 C 0 km/h
360 11-06-2022 05:55:00 12.7 C 10.58 g/m*3 12.7 C 0 km/h
361 11-06-2022 06:00:00 12.8 C 10.64 g/m*3 12.8 C 0 km/h
362 11-06-2022 06:05:00 12.9 C 10.71 g/m*3 12.9 C 0 km/h
363 11-06-2022 06:10:00 12.9 C 10.82 g/m*3 12.9 C 0 km/h
364 11-06-2022 06:15:00 12.9 C 10.82 g/m*3 12.9 C 0 km/h
365 11-06-2022 06:20:00 13 C 10.89 g/m*3 13 C 0 km/h
366 11-06-2022 06:25:00 13.1 C 10.95 g/m*3 13.1 C 0 km/h
367 11-06-2022 06:30:00 13.1 C 10.84 g/m*3 13.1 C 0 km/h
368 11-06-2022 06:35:00 13.2 C 11.02 g/m*3 13.2 C 1.6 km/h
369 11-06-2022 06:40:00 13.2 C 10.91 g/m*3 13.2 C 0 km/h
370 11-06-2022 06:45:00 13.3 C 11.09 g/m*3 13.3 C 0 km/h
371 11-06-2022 06:50:00 13.3 C 11.09 g/m*3 13.3 C 0 km/h
372 11-06-2022 06:55:00 13.4 C 11.16 g/m*3 13.4 C 0 km/h
373 11-06-2022 07:00:00 13.4 C 11.16 g/m*3 13.4 C 0 km/h
374 11-06-2022 07:05:00 13.4 C 11.04 g/m*3 13.4 C 0 km/h
375 11-06-2022 07:10:00 13.6 C 11.18 g/m*3 13.6 C 0 km/h
Sensor: Nr:Datum:Temp:Abs-Feuchte:Windchill:Wind:
Aussen-T/F 376 11-06-2022 07:15:00 13.6 C 11.3 g/m*3 13.6 C 0 km/h
377 11-06-2022 07:20:00 13.7 C 11.37 g/m*3 13.7 C 0 km/h
378 11-06-2022 07:25:00 13.8 C 11.44 g/m*3 13.8 C 0 km/h
379 11-06-2022 07:30:00 13.8 C 11.44 g/m*3 13.8 C 0 km/h
380 11-06-2022 07:35:00 13.9 C 11.39 g/m*3 13.9 C 0 km/h
381 11-06-2022 07:40:00 14 C 11.46 g/m*3 14 C 1.6 km/h
382 11-06-2022 07:45:00 14.1 C 11.53 g/m*3 14.1 C 0 km/h
383 11-06-2022 07:50:00 14.2 C 11.6 g/m*3 14.2 C 0 km/h
384 11-06-2022 07:55:00 14.3 C 11.67 g/m*3 14.3 C 0 km/h
385 11-06-2022 08:00:00 14.4 C 11.74 g/m*3 14.4 C 0 km/h
386 11-06-2022 08:05:00 14.5 C 11.82 g/m*3 14.5 C 0 km/h
387 11-06-2022 08:10:00 14.6 C 11.76 g/m*3 14.6 C 0 km/h
388 11-06-2022 08:15:00 14.6 C 11.76 g/m*3 14.6 C 0 km/h
389 11-06-2022 08:20:00 14.7 C 11.71 g/m*3 14.7 C 0 km/h
390 11-06-2022 08:25:00 14.8 C 11.78 g/m*3 14.8 C 0 km/h
391 11-06-2022 08:30:00 15 C 11.93 g/m*3 15 C 1.6 km/h
392 11-06-2022 08:35:00 15.2 C 12.07 g/m*3 15.2 C 0 km/h
393 11-06-2022 08:40:00 15.4 C 12.22 g/m*3 15.4 C 0 km/h
394 11-06-2022 08:45:00 15.5 C 12.16 g/m*3 15.5 C 0 km/h
395 11-06-2022 08:50:00 15.6 C 12.1 g/m*3 15.6 C 0 km/h
396 11-06-2022 08:55:00 15.7 C 12.31 g/m*3 15.7 C 0 km/h
397 11-06-2022 09:00:00 15.8 C 12.25 g/m*3 15.8 C 0 km/h
398 11-06-2022 09:05:00 15.9 C 12.32 g/m*3 15.9 C 0 km/h
399 11-06-2022 09:10:00 15.9 C 12.19 g/m*3 15.9 C 1.6 km/h
400 11-06-2022 09:15:00 16.1 C 12.47 g/m*3 16.1 C 0 km/h
Sensor: Nr:Datum:Temp:Abs-Feuchte:Windchill:Wind:
Aussen-T/F 401 11-06-2022 09:20:00 16.1 C 12.34 g/m*3 16.1 C 1.6 km/h
402 11-06-2022 09:25:00 16.2 C 12.27 g/m*3 16.2 C 0 km/h
403 11-06-2022 09:30:00 16.2 C 12.41 g/m*3 16.2 C 0 km/h
404 11-06-2022 09:35:00 16.3 C 12.35 g/m*3 16.3 C 0 km/h
405 11-06-2022 09:40:00 16.3 C 12.35 g/m*3 16.3 C 0 km/h
406 11-06-2022 09:45:00 16.4 C 12.42 g/m*3 16.4 C 0 km/h
407 11-06-2022 09:50:00 16.6 C 12.57 g/m*3 16.6 C 0 km/h
408 11-06-2022 09:55:00 16.7 C 12.51 g/m*3 16.7 C 0 km/h
409 11-06-2022 10:00:00 16.9 C 12.66 g/m*3 16.9 C 0 km/h
410 11-06-2022 10:05:00 17.2 C 12.59 g/m*3 17.2 C 0 km/h
411 11-06-2022 10:10:00 17.5 C 12.82 g/m*3 17.5 C 0 km/h
412 11-06-2022 10:15:00 17.7 C 12.67 g/m*3 17.7 C 0 km/h
413 11-06-2022 10:20:00 17.8 C 12.75 g/m*3 17.8 C 0 km/h
414 11-06-2022 10:25:00 18.1 C 12.82 g/m*3 18.1 C 0 km/h
415 11-06-2022 10:30:00 18.4 C 13.21 g/m*3 18.4 C 0 km/h
416 11-06-2022 10:35:00 18.7 C 13.13 g/m*3 18.7 C 0 km/h
417 11-06-2022 10:40:00 18.9 C 13.28 g/m*3 18.9 C 0 km/h
418 11-06-2022 10:45:00 19.1 C 13.28 g/m*3 19.1 C 0 km/h
419 11-06-2022 10:50:00 19.3 C 13.27 g/m*3 19.3 C 0 km/h
420 11-06-2022 10:55:00 19.6 C 13.51 g/m*3 19.6 C 0 km/h
421 11-06-2022 11:00:00 19.9 C 13.74 g/m*3 19.9 C 0 km/h
422 11-06-2022 11:05:00 20 C 13.48 g/m*3 20 C 0 km/h
423 11-06-2022 11:10:00 20.1 C 13.91 g/m*3 20.1 C 0 km/h
424 11-06-2022 11:15:00 20.3 C 13.89 g/m*3 20.3 C 0 km/h
425 11-06-2022 11:20:00 20.5 C 13.7 g/m*3 20.5 C 0 km/h
Sensor: Nr:Datum:Temp:Abs-Feuchte:Windchill:Wind:
Aussen-T/F 426 11-06-2022 11:25:00 20.8 C 13.94 g/m*3 20.8 C 0 km/h
427 11-06-2022 11:30:00 21 C 13.74 g/m*3 21 C 4.8 km/h
428 11-06-2022 11:35:00 21.2 C 13.9 g/m*3 21.2 C 3.2 km/h
429 11-06-2022 11:40:00 21.4 C 14.25 g/m*3 21.4 C 1.6 km/h
430 11-06-2022 11:45:00 21.7 C 14.5 g/m*3 21.7 C 6.4 km/h
431 11-06-2022 11:50:00 22 C 14.17 g/m*3 22 C 6.4 km/h
432 11-06-2022 11:55:00 22.2 C 13.94 g/m*3 22.2 C 0 km/h
433 11-06-2022 12:00:00 22.3 C 14.02 g/m*3 22.3 C 0 km/h
434 11-06-2022 12:05:00 22.5 C 13.78 g/m*3 22.5 C 3.2 km/h
435 11-06-2022 12:10:00 22.7 C 13.94 g/m*3 22.7 C 3.2 km/h
436 11-06-2022 12:15:00 22.9 C 14.1 g/m*3 22.9 C 1.6 km/h
437 11-06-2022 12:20:00 23.3 C 14.84 g/m*3 23.3 C 1.6 km/h
438 11-06-2022 12:25:00 23.4 C 15.14 g/m*3 23.4 C 3.2 km/h
439 11-06-2022 12:30:00 23.4 C 15.56 g/m*3 23.4 C 0 km/h
440 11-06-2022 12:35:00 23.4 C 15.56 g/m*3 23.4 C 0 km/h
441 11-06-2022 12:40:00 23.3 C 14.43 g/m*3 23.3 C 0 km/h
442 11-06-2022 12:45:00 23.6 C 14.25 g/m*3 23.6 C 0 km/h
443 11-06-2022 12:50:00 23.9 C 14.28 g/m*3 23.9 C 4.8 km/h
444 11-06-2022 12:55:00 24.3 C 13.94 g/m*3 24.3 C 8.1 km/h
445 11-06-2022 13:00:00 24.4 C 14.47 g/m*3 24.4 C 3.2 km/h
446 11-06-2022 13:05:00 24.6 C 15.53 g/m*3 24.6 C 1.6 km/h
447 11-06-2022 13:10:00 24.5 C 16.11 g/m*3 24.5 C 3.2 km/h
448 11-06-2022 13:15:00 24.4 C 15.58 g/m*3 24.4 C 0 km/h
449 11-06-2022 13:20:00 24.3 C 15.71 g/m*3 24.3 C 0 km/h
450 11-06-2022 13:25:00 24.1 C 14.66 g/m*3 24.1 C 0 km/h
Sensor: Nr:Datum:Temp:Abs-Feuchte:Windchill:Wind:
Aussen-T/F 451 11-06-2022 13:30:00 24.1 C 14 g/m*3 24.1 C 0 km/h
452 11-06-2022 13:35:00 24.3 C 14.83 g/m*3 24.3 C 0 km/h
453 11-06-2022 13:40:00 24.5 C 15.22 g/m*3 24.5 C 0 km/h
454 11-06-2022 13:45:00 24.6 C 16.43 g/m*3 24.6 C 0 km/h
455 11-06-2022 13:50:00 24.6 C 16.43 g/m*3 24.6 C 0 km/h
456 11-06-2022 13:55:00 24.5 C 16.56 g/m*3 24.5 C 0 km/h
457 11-06-2022 14:00:00 24.3 C 16.38 g/m*3 24.3 C 0 km/h
458 11-06-2022 14:05:00 24.3 C 14.38 g/m*3 24.3 C 0 km/h
459 11-06-2022 14:10:00 24.6 C 14.18 g/m*3 24.6 C 0 km/h
460 11-06-2022 14:15:00 25.1 C 14.35 g/m*3 25.1 C 4.8 km/h
461 11-06-2022 14:20:00 25.6 C 14.52 g/m*3 25.6 C 1.6 km/h
462 11-06-2022 14:25:00 26.1 C 13.71 g/m*3 26.1 C 1.6 km/h
463 11-06-2022 14:30:00 26.5 C 13.52 g/m*3 26.5 C 8.1 km/h
464 11-06-2022 14:35:00 26.9 C 13.56 g/m*3 26.9 C 6.4 km/h
465 11-06-2022 14:40:00 27.4 C 14.21 g/m*3 27.4 C 9.7 km/h
466 11-06-2022 14:45:00 27.7 C 13.37 g/m*3 27.7 C 8.1 km/h
467 11-06-2022 14:50:00 28 C 13.33 g/m*3 28 C 6.4 km/h
468 11-06-2022 14:55:00 28.1 C 13.13 g/m*3 28.1 C 4.8 km/h
469 11-06-2022 15:00:00 28.3 C 14.38 g/m*3 28.3 C 11.3 km/h
470 11-06-2022 15:05:00 28.4 C 12.51 g/m*3 28.4 C 9.7 km/h
471 11-06-2022 15:10:00 28.3 C 12.72 g/m*3 28.3 C 11.3 km/h
472 11-06-2022 15:15:00 28.1 C 12.58 g/m*3 28.1 C 8.1 km/h
473 11-06-2022 15:20:00 28 C 13.6 g/m*3 28 C 4.8 km/h
474 11-06-2022 15:25:00 27.9 C 13.52 g/m*3 27.9 C 6.4 km/h
475 11-06-2022 15:30:00 28.2 C 14.02 g/m*3 28.2 C 12.9 km/h
Sensor: Nr:Datum:Temp:Abs-Feuchte:Windchill:Wind:
Aussen-T/F 476 11-06-2022 15:35:00 28.5 C 12.86 g/m*3 28.5 C 12.9 km/h
477 11-06-2022 15:40:00 28.3 C 12.44 g/m*3 28.3 C 12.9 km/h
478 11-06-2022 15:45:00 28.2 C 12.92 g/m*3 28.2 C 8.1 km/h
479 11-06-2022 15:50:00 28.4 C 13.9 g/m*3 28.4 C 4.8 km/h
480 11-06-2022 15:55:00 28.7 C 13 g/m*3 28.7 C 6.4 km/h
481 11-06-2022 16:00:00 29.1 C 13 g/m*3 29.1 C 11.3 km/h
482 11-06-2022 16:05:00 29.1 C 13.28 g/m*3 29.1 C 6.4 km/h
483 11-06-2022 16:10:00 29.2 C 13.07 g/m*3 29.2 C 8.1 km/h
484 11-06-2022 16:15:00 29.4 C 13.21 g/m*3 29.4 C 12.9 km/h
485 11-06-2022 16:20:00 29.6 C 13.35 g/m*3 29.6 C 9.7 km/h
486 11-06-2022 16:25:00 29.7 C 12.83 g/m*3 29.7 C 11.3 km/h
487 11-06-2022 16:30:00 29.4 C 12.62 g/m*3 29.4 C 9.7 km/h
488 11-06-2022 16:35:00 28.8 C 13.07 g/m*3 28.8 C 6.4 km/h
489 11-06-2022 16:40:00 28.6 C 14.05 g/m*3 28.6 C 4.8 km/h
490 11-06-2022 16:45:00 28.3 C 13.55 g/m*3 28.3 C 6.4 km/h
491 11-06-2022 16:50:00 28.1 C 13.67 g/m*3 28.1 C 1.6 km/h
492 11-06-2022 16:55:00 27.9 C 14.33 g/m*3 27.9 C 1.6 km/h
493 11-06-2022 17:00:00 27.8 C 13.72 g/m*3 27.8 C 1.6 km/h
494 11-06-2022 17:05:00 27.8 C 15.33 g/m*3 27.8 C 3.2 km/h
495 11-06-2022 17:10:00 27.6 C 14.37 g/m*3 27.6 C 6.4 km/h
496 11-06-2022 17:15:00 27.7 C 13.37 g/m*3 27.7 C 8.1 km/h
497 11-06-2022 17:20:00 27.6 C 13.83 g/m*3 27.6 C 4.8 km/h
498 11-06-2022 17:25:00 27.5 C 14.02 g/m*3 27.5 C 6.4 km/h
499 11-06-2022 17:30:00 27.3 C 13.34 g/m*3 27.3 C 6.4 km/h
500 11-06-2022 17:35:00 26.9 C 14.84 g/m*3 26.9 C 6.4 km/h
Sensor: Nr:Datum:Temp:Abs-Feuchte:Windchill:Wind:
Aussen-T/F 501 11-06-2022 17:40:00 26.8 C 16.54 g/m*3 26.8 C 0 km/h
502 11-06-2022 17:45:00 26.7 C 16.71 g/m*3 26.7 C 3.2 km/h
503 11-06-2022 17:50:00 26.7 C 14.68 g/m*3 26.7 C 3.2 km/h
504 11-06-2022 17:55:00 26.9 C 14.33 g/m*3 26.9 C 4.8 km/h
505 11-06-2022 18:00:00 26.8 C 14.76 g/m*3 26.8 C 4.8 km/h
506 11-06-2022 18:05:00 26.8 C 14.25 g/m*3 26.8 C 1.6 km/h
507 11-06-2022 18:10:00 26.7 C 14.17 g/m*3 26.7 C 0 km/h
508 11-06-2022 18:15:00 26.7 C 16.2 g/m*3 26.7 C 1.6 km/h
509 11-06-2022 18:20:00 26.7 C 15.95 g/m*3 26.7 C 4.8 km/h
510 11-06-2022 18:25:00 27.1 C 14.49 g/m*3 27.1 C 3.2 km/h
511 11-06-2022 18:30:00 27.4 C 13.68 g/m*3 27.4 C 4.8 km/h
512 11-06-2022 18:35:00 27.4 C 15.79 g/m*3 27.4 C 3.2 km/h
513 11-06-2022 18:40:00 27.2 C 16.65 g/m*3 27.2 C 1.6 km/h
514 11-06-2022 18:45:00 26.8 C 16.8 g/m*3 26.8 C 1.6 km/h
515 11-06-2022 18:50:00 26.6 C 17.12 g/m*3 26.6 C 1.6 km/h
516 11-06-2022 18:55:00 26.3 C 17.08 g/m*3 26.3 C 0 km/h
517 11-06-2022 19:00:00 25.9 C 16.7 g/m*3 25.9 C 0 km/h
518 11-06-2022 19:05:00 25.7 C 16.76 g/m*3 25.7 C 0 km/h
519 11-06-2022 19:10:00 25.6 C 16.67 g/m*3 25.6 C 0 km/h
520 11-06-2022 19:15:00 25.7 C 15.08 g/m*3 25.7 C 0 km/h
521 11-06-2022 19:20:00 25.8 C 16.13 g/m*3 25.8 C 3.2 km/h
522 11-06-2022 19:25:00 26 C 16.55 g/m*3 26 C 1.6 km/h
523 11-06-2022 19:30:00 26 C 16.8 g/m*3 26 C 0 km/h
524 11-06-2022 19:35:00 25.9 C 14.53 g/m*3 25.9 C 8.1 km/h
525 11-06-2022 19:40:00 25.8 C 14.45 g/m*3 25.8 C 8.1 km/h
Sensor: Nr:Datum:Temp:Abs-Feuchte:Windchill:Wind:
Aussen-T/F 526 11-06-2022 19:45:00 25.6 C 14.28 g/m*3 25.6 C 8.1 km/h
527 11-06-2022 19:50:00 25.4 C 14.36 g/m*3 25.4 C 8.1 km/h
528 11-06-2022 19:55:00 25.3 C 14.98 g/m*3 25.3 C 4.8 km/h
529 11-06-2022 20:00:00 25.3 C 15.45 g/m*3 25.3 C 1.6 km/h
530 11-06-2022 20:05:00 25.2 C 15.13 g/m*3 25.2 C 6.4 km/h
531 11-06-2022 20:10:00 25 C 14.73 g/m*3 25 C 4.8 km/h
532 11-06-2022 20:15:00 24.8 C 14.57 g/m*3 24.8 C 6.4 km/h
533 11-06-2022 20:20:00 24.5 C 14.77 g/m*3 24.5 C 4.8 km/h
534 11-06-2022 20:25:00 24.3 C 15.27 g/m*3 24.3 C 3.2 km/h
535 11-06-2022 20:30:00 24.2 C 15.4 g/m*3 24.2 C 1.6 km/h
536 11-06-2022 20:35:00 23.8 C 15.06 g/m*3 23.8 C 1.6 km/h
537 11-06-2022 20:40:00 23.6 C 15.1 g/m*3 23.6 C 0 km/h
538 11-06-2022 20:45:00 23.3 C 15.47 g/m*3 23.3 C 0 km/h
539 11-06-2022 20:50:00 23.1 C 15.3 g/m*3 23.1 C 0 km/h
540 11-06-2022 20:55:00 22.8 C 15.04 g/m*3 22.8 C 0 km/h
541 11-06-2022 21:00:00 22.6 C 15.27 g/m*3 22.6 C 0 km/h
542 11-06-2022 21:05:00 22.3 C 15.2 g/m*3 22.3 C 0 km/h
543 11-06-2022 21:10:00 22.1 C 15.23 g/m*3 22.1 C 0 km/h
544 11-06-2022 21:15:00 21.8 C 14.97 g/m*3 21.8 C 0 km/h
545 11-06-2022 21:20:00 21.6 C 14.6 g/m*3 21.6 C 0 km/h
546 11-06-2022 21:25:00 21.3 C 14.54 g/m*3 21.3 C 0 km/h
547 11-06-2022 21:30:00 21.1 C 14.37 g/m*3 21.1 C 1.6 km/h
548 11-06-2022 21:35:00 20.9 C 14.39 g/m*3 20.9 C 0 km/h
549 11-06-2022 21:40:00 20.8 C 14.3 g/m*3 20.8 C 0 km/h
550 11-06-2022 21:45:00 20.6 C 14.32 g/m*3 20.6 C 0 km/h
Sensor: Nr:Datum:Temp:Abs-Feuchte:Windchill:Wind:
Aussen-T/F 551 11-06-2022 21:50:00 20.4 C 14.15 g/m*3 20.4 C 1.6 km/h
552 11-06-2022 21:55:00 20.2 C 14.16 g/m*3 20.2 C 4.8 km/h
553 11-06-2022 22:00:00 20.1 C 14.25 g/m*3 20.1 C 1.6 km/h
554 11-06-2022 22:05:00 19.9 C 14.09 g/m*3 19.9 C 0 km/h
555 11-06-2022 22:10:00 19.7 C 14.09 g/m*3 19.7 C 3.2 km/h
556 11-06-2022 22:15:00 19.5 C 13.93 g/m*3 19.5 C 0 km/h
557 11-06-2022 22:20:00 19.3 C 13.93 g/m*3 19.3 C 0 km/h
558 11-06-2022 22:25:00 19.2 C 13.85 g/m*3 19.2 C 0 km/h
559 11-06-2022 22:30:00 19 C 13.85 g/m*3 19 C 1.6 km/h
560 11-06-2022 22:35:00 18.8 C 13.69 g/m*3 18.8 C 0 km/h
561 11-06-2022 22:40:00 18.7 C 13.61 g/m*3 18.7 C 0 km/h
562 11-06-2022 22:45:00 18.5 C 13.45 g/m*3 18.5 C 0 km/h
563 11-06-2022 22:50:00 18.3 C 13.45 g/m*3 18.3 C 0 km/h
564 11-06-2022 22:55:00 18.2 C 13.37 g/m*3 18.2 C 0 km/h
565 11-06-2022 23:00:00 18 C 13.36 g/m*3 18 C 0 km/h
566 11-06-2022 23:05:00 17.8 C 13.2 g/m*3 17.8 C 0 km/h
567 11-06-2022 23:10:00 17.7 C 13.13 g/m*3 17.7 C 0 km/h
568 11-06-2022 23:15:00 17.6 C 13.2 g/m*3 17.6 C 0 km/h
569 11-06-2022 23:20:00 17.4 C 13.04 g/m*3 17.4 C 0 km/h
570 11-06-2022 23:25:00 17.3 C 12.96 g/m*3 17.3 C 0 km/h
571 11-06-2022 23:30:00 17.2 C 12.89 g/m*3 17.2 C 0 km/h
572 11-06-2022 23:35:00 17.2 C 13.03 g/m*3 17.2 C 0 km/h
573 11-06-2022 23:40:00 17.1 C 12.96 g/m*3 17.1 C 0 km/h
574 11-06-2022 23:45:00 17 C 12.88 g/m*3 17 C 0 km/h
575 11-06-2022 23:50:00 16.9 C 12.8 g/m*3 16.9 C 0 km/h
Sensor: Nr:Datum:Temp:Abs-Feuchte:Windchill:Wind:
Aussen-T/F 576 11-06-2022 23:55:00 16.8 C 12.87 g/m*3 16.8 C 0 km/h
577 12-06-2022 00:00:00 16.7 C 12.79 g/m*3 16.7 C 0 km/h
578 12-06-2022 00:05:00 16.7 C 12.79 g/m*3 16.7 C 0 km/h
579 12-06-2022 00:10:00 16.6 C 12.71 g/m*3 16.6 C 0 km/h
580 12-06-2022 00:15:00 16.5 C 12.64 g/m*3 16.5 C 0 km/h
581 12-06-2022 00:20:00 16.4 C 12.56 g/m*3 16.4 C 0 km/h
582 12-06-2022 00:25:00 16.3 C 12.62 g/m*3 16.3 C 0 km/h
583 12-06-2022 00:30:00 16.3 C 12.62 g/m*3 16.3 C 0 km/h
584 12-06-2022 00:35:00 16.2 C 12.55 g/m*3 16.2 C 0 km/h
585 12-06-2022 00:40:00 16.1 C 12.47 g/m*3 16.1 C 0 km/h
586 12-06-2022 00:45:00 16.1 C 12.47 g/m*3 16.1 C 0 km/h
587 12-06-2022 00:50:00 16 C 12.4 g/m*3 16 C 0 km/h
588 12-06-2022 00:55:00 15.9 C 12.32 g/m*3 15.9 C 0 km/h
589 12-06-2022 01:00:00 15.9 C 12.46 g/m*3 15.9 C 0 km/h
590 12-06-2022 01:05:00 15.9 C 12.46 g/m*3 15.9 C 0 km/h
591 12-06-2022 01:10:00 15.9 C 12.46 g/m*3 15.9 C 0 km/h
592 12-06-2022 01:15:00 16 C 12.53 g/m*3 16 C 0 km/h
593 12-06-2022 01:20:00 16 C 12.53 g/m*3 16 C 0 km/h
594 12-06-2022 01:25:00 15.9 C 12.59 g/m*3 15.9 C 0 km/h
595 12-06-2022 01:30:00 15.9 C 12.46 g/m*3 15.9 C 0 km/h
596 12-06-2022 01:35:00 15.8 C 12.38 g/m*3 15.8 C 0 km/h
597 12-06-2022 01:40:00 15.7 C 12.31 g/m*3 15.7 C 0 km/h
598 12-06-2022 01:45:00 15.6 C 12.23 g/m*3 15.6 C 0 km/h
599 12-06-2022 01:50:00 15.4 C 12.09 g/m*3 15.4 C 0 km/h
600 12-06-2022 01:55:00 15.3 C 12.01 g/m*3 15.3 C 0 km/h
Sensor: Nr:Datum:Temp:Abs-Feuchte:Windchill:Wind:
Aussen-T/F 601 12-06-2022 02:00:00 15.2 C 11.94 g/m*3 15.2 C 0 km/h
602 12-06-2022 02:05:00 15.2 C 11.94 g/m*3 15.2 C 0 km/h
603 12-06-2022 02:10:00 15.1 C 11.87 g/m*3 15.1 C 0 km/h
604 12-06-2022 02:15:00 15 C 11.8 g/m*3 15 C 0 km/h
605 12-06-2022 02:20:00 14.9 C 11.73 g/m*3 14.9 C 0 km/h
606 12-06-2022 02:25:00 14.9 C 11.85 g/m*3 14.9 C 0 km/h
607 12-06-2022 02:30:00 14.8 C 11.78 g/m*3 14.8 C 0 km/h
608 12-06-2022 02:35:00 14.8 C 11.78 g/m*3 14.8 C 0 km/h
609 12-06-2022 02:40:00 14.7 C 11.71 g/m*3 14.7 C 0 km/h
610 12-06-2022 02:45:00 14.7 C 11.71 g/m*3 14.7 C 0 km/h
611 12-06-2022 02:50:00 14.6 C 11.64 g/m*3 14.6 C 0 km/h
612 12-06-2022 02:55:00 14.5 C 11.57 g/m*3 14.5 C 0 km/h
613 12-06-2022 03:00:00 14.4 C 11.5 g/m*3 14.4 C 0 km/h
614 12-06-2022 03:05:00 14.4 C 11.5 g/m*3 14.4 C 0 km/h
615 12-06-2022 03:10:00 14.4 C 11.5 g/m*3 14.4 C 0 km/h
616 12-06-2022 03:15:00 14.3 C 11.43 g/m*3 14.3 C 0 km/h
617 12-06-2022 03:20:00 14.3 C 11.43 g/m*3 14.3 C 0 km/h
618 12-06-2022 03:25:00 14.3 C 11.43 g/m*3 14.3 C 0 km/h
619 12-06-2022 03:30:00 14.2 C 11.48 g/m*3 14.2 C 0 km/h
620 12-06-2022 03:35:00 14.2 C 11.48 g/m*3 14.2 C 0 km/h
621 12-06-2022 03:40:00 14.2 C 11.48 g/m*3 14.2 C 0 km/h
622 12-06-2022 03:45:00 14.1 C 11.41 g/m*3 14.1 C 0 km/h
623 12-06-2022 03:50:00 14.1 C 11.41 g/m*3 14.1 C 0 km/h
624 12-06-2022 03:55:00 14.1 C 11.41 g/m*3 14.1 C 0 km/h
625 12-06-2022 04:00:00 14.1 C 11.41 g/m*3 14.1 C 0 km/h
Sensor: Nr:Datum:Temp:Abs-Feuchte:Windchill:Wind:
Aussen-T/F 626 12-06-2022 04:05:00 14.1 C 11.41 g/m*3 14.1 C 0 km/h
627 12-06-2022 04:10:00 14.1 C 11.41 g/m*3 14.1 C 0 km/h
628 12-06-2022 04:15:00 14 C 11.34 g/m*3 14 C 0 km/h
629 12-06-2022 04:20:00 13.9 C 11.27 g/m*3 13.9 C 0 km/h
630 12-06-2022 04:25:00 13.9 C 11.27 g/m*3 13.9 C 0 km/h
631 12-06-2022 04:30:00 13.8 C 11.2 g/m*3 13.8 C 0 km/h
632 12-06-2022 04:35:00 13.8 C 11.2 g/m*3 13.8 C 0 km/h
633 12-06-2022 04:40:00 13.7 C 11.13 g/m*3 13.7 C 0 km/h
634 12-06-2022 04:45:00 13.7 C 11.13 g/m*3 13.7 C 0 km/h
635 12-06-2022 04:50:00 13.6 C 11.06 g/m*3 13.6 C 0 km/h
636 12-06-2022 04:55:00 13.5 C 10.99 g/m*3 13.5 C 0 km/h
637 12-06-2022 05:00:00 13.5 C 10.99 g/m*3 13.5 C 0 km/h
638 12-06-2022 05:05:00 13.5 C 11.11 g/m*3 13.5 C 0 km/h
639 12-06-2022 05:10:00 13.6 C 11.18 g/m*3 13.6 C 0 km/h
640 12-06-2022 05:15:00 13.5 C 11.11 g/m*3 13.5 C 0 km/h
641 12-06-2022 05:20:00 13.4 C 11.04 g/m*3 13.4 C 0 km/h
642 12-06-2022 05:25:00 13.3 C 10.86 g/m*3 13.3 C 0 km/h
643 12-06-2022 05:30:00 13.3 C 10.86 g/m*3 13.3 C 0 km/h
644 12-06-2022 05:35:00 13.3 C 10.98 g/m*3 13.3 C 1.6 km/h
645 12-06-2022 05:40:00 13.3 C 10.98 g/m*3 13.3 C 0 km/h
646 12-06-2022 05:45:00 13.3 C 10.98 g/m*3 13.3 C 0 km/h
647 12-06-2022 05:50:00 13.3 C 10.98 g/m*3 13.3 C 0 km/h
648 12-06-2022 05:55:00 13.3 C 10.98 g/m*3 13.3 C 0 km/h
649 12-06-2022 06:00:00 13.2 C 10.91 g/m*3 13.2 C 1.6 km/h
650 12-06-2022 06:05:00 13.3 C 10.98 g/m*3 13.3 C 1.6 km/h
Sensor: Nr:Datum:Temp:Abs-Feuchte:Windchill:Wind:
Aussen-T/F 651 12-06-2022 06:10:00 13.3 C 10.98 g/m*3 13.3 C 1.6 km/h
652 12-06-2022 06:15:00 13.4 C 11.04 g/m*3 13.4 C 1.6 km/h
653 12-06-2022 06:20:00 13.4 C 11.04 g/m*3 13.4 C 0 km/h
654 12-06-2022 06:25:00 13.5 C 11.11 g/m*3 13.5 C 0 km/h
655 12-06-2022 06:30:00 13.4 C 11.04 g/m*3 13.4 C 0 km/h
656 12-06-2022 06:35:00 13.4 C 11.04 g/m*3 13.4 C 0 km/h
657 12-06-2022 06:40:00 13.4 C 11.04 g/m*3 13.4 C 0 km/h
658 12-06-2022 06:45:00 13.4 C 11.04 g/m*3 13.4 C 0 km/h
659 12-06-2022 06:50:00 13.4 C 11.04 g/m*3 13.4 C 0 km/h
660 12-06-2022 06:55:00 13.4 C 11.04 g/m*3 13.4 C 0 km/h
661 12-06-2022 07:00:00 13.4 C 11.04 g/m*3 13.4 C 1.6 km/h
662 12-06-2022 07:05:00 13.4 C 11.04 g/m*3 13.4 C 0 km/h
663 12-06-2022 07:10:00 13.6 C 11.18 g/m*3 13.6 C 0 km/h
664 12-06-2022 07:15:00 13.6 C 11.18 g/m*3 13.6 C 0 km/h
665 12-06-2022 07:20:00 13.7 C 11.37 g/m*3 13.7 C 0 km/h
666 12-06-2022 07:25:00 13.7 C 11.37 g/m*3 13.7 C 0 km/h
667 12-06-2022 07:30:00 13.8 C 11.44 g/m*3 13.8 C 0 km/h
668 12-06-2022 07:35:00 13.8 C 11.44 g/m*3 13.8 C 0 km/h
669 12-06-2022 07:40:00 13.9 C 11.51 g/m*3 13.9 C 0 km/h
670 12-06-2022 07:45:00 14 C 11.58 g/m*3 14 C 0 km/h
671 12-06-2022 07:50:00 14.1 C 11.65 g/m*3 14.1 C 0 km/h
672 12-06-2022 07:55:00 14.2 C 11.72 g/m*3 14.2 C 0 km/h
673 12-06-2022 08:00:00 14.2 C 11.72 g/m*3 14.2 C 0 km/h
674 12-06-2022 08:05:00 14.3 C 11.79 g/m*3 14.3 C 0 km/h
675 12-06-2022 08:10:00 14.3 C 11.79 g/m*3 14.3 C 0 km/h
Sensor: Nr:Datum:Temp:Abs-Feuchte:Windchill:Wind:
Aussen-T/F 676 12-06-2022 08:15:00 14.4 C 11.87 g/m*3 14.4 C 0 km/h
677 12-06-2022 08:20:00 14.5 C 11.94 g/m*3 14.5 C 1.6 km/h
678 12-06-2022 08:25:00 14.6 C 12.01 g/m*3 14.6 C 0 km/h
679 12-06-2022 08:30:00 14.7 C 12.09 g/m*3 14.7 C 1.6 km/h
680 12-06-2022 08:35:00 14.7 C 12.09 g/m*3 14.7 C 0 km/h
681 12-06-2022 08:40:00 14.7 C 12.09 g/m*3 14.7 C 0 km/h
682 12-06-2022 08:45:00 14.8 C 12.16 g/m*3 14.8 C 0 km/h
683 12-06-2022 08:50:00 14.8 C 12.16 g/m*3 14.8 C 1.6 km/h
684 12-06-2022 08:55:00 15 C 12.31 g/m*3 15 C 1.6 km/h
685 12-06-2022 09:00:00 15.2 C 12.46 g/m*3 15.2 C 4.8 km/h
686 12-06-2022 09:05:00 15.3 C 12.54 g/m*3 15.3 C 1.6 km/h
687 12-06-2022 09:10:00 15.7 C 12.84 g/m*3 15.7 C 0 km/h
688 12-06-2022 09:15:00 16 C 13.08 g/m*3 16 C 0 km/h
689 12-06-2022 09:20:00 16.3 C 13.18 g/m*3 16.3 C 0 km/h
690 12-06-2022 09:25:00 16.4 C 13.26 g/m*3 16.4 C 0 km/h
691 12-06-2022 09:30:00 16.6 C 13.28 g/m*3 16.6 C 0 km/h
692 12-06-2022 09:35:00 16.8 C 13.3 g/m*3 16.8 C 0 km/h
693 12-06-2022 09:40:00 16.9 C 13.23 g/m*3 16.9 C 0 km/h
694 12-06-2022 09:45:00 17.2 C 13.47 g/m*3 17.2 C 0 km/h
695 12-06-2022 09:50:00 17.3 C 13.41 g/m*3 17.3 C 0 km/h
696 12-06-2022 09:55:00 17.5 C 13.57 g/m*3 17.5 C 1.6 km/h
697 12-06-2022 10:00:00 17.7 C 13.58 g/m*3 17.7 C 0 km/h
698 12-06-2022 10:05:00 17.9 C 13.44 g/m*3 17.9 C 3.2 km/h
699 12-06-2022 10:10:00 18.2 C 13.52 g/m*3 18.2 C 0 km/h
700 12-06-2022 10:15:00 18.6 C 13.69 g/m*3 18.6 C 3.2 km/h
Sensor: Nr:Datum:Temp:Abs-Feuchte:Windchill:Wind:
Aussen-T/F 701 12-06-2022 10:20:00 19.1 C 13.61 g/m*3 19.1 C 4.8 km/h
702 12-06-2022 10:25:00 19.4 C 13.51 g/m*3 19.4 C 0 km/h
703 12-06-2022 10:30:00 19.8 C 13.49 g/m*3 19.8 C 4.8 km/h
704 12-06-2022 10:35:00 20.2 C 13.46 g/m*3 20.2 C 4.8 km/h
705 12-06-2022 10:40:00 20.5 C 13.88 g/m*3 20.5 C 1.6 km/h
706 12-06-2022 10:45:00 20.8 C 13.4 g/m*3 20.8 C 4.8 km/h
707 12-06-2022 10:50:00 21.2 C 13.34 g/m*3 21.2 C 6.4 km/h
708 12-06-2022 10:55:00 21.4 C 13.5 g/m*3 21.4 C 4.8 km/h
709 12-06-2022 11:00:00 21.6 C 13.28 g/m*3 21.6 C 6.4 km/h
710 12-06-2022 11:05:00 21.8 C 13.43 g/m*3 21.8 C 6.4 km/h
711 12-06-2022 11:10:00 22.1 C 13.08 g/m*3 22.1 C 4.8 km/h
712 12-06-2022 11:15:00 22.2 C 12.76 g/m*3 22.2 C 11.3 km/h
713 12-06-2022 11:20:00 22.3 C 13.23 g/m*3 22.3 C 8.1 km/h
714 12-06-2022 11:25:00 22.4 C 13.11 g/m*3 22.4 C 3.2 km/h
715 12-06-2022 11:30:00 22.6 C 12.86 g/m*3 22.6 C 3.2 km/h
716 12-06-2022 11:35:00 22.6 C 12.86 g/m*3 22.6 C 3.2 km/h
717 12-06-2022 11:40:00 22.7 C 12.93 g/m*3 22.7 C 8.1 km/h
718 12-06-2022 11:45:00 22.8 C 13.41 g/m*3 22.8 C 9.7 km/h
719 12-06-2022 11:50:00 23 C 12.95 g/m*3 23 C 3.2 km/h
720 12-06-2022 11:55:00 23.2 C 12.68 g/m*3 23.2 C 9.7 km/h
721 12-06-2022 12:00:00 23.3 C 12.75 g/m*3 23.3 C 6.4 km/h
722 12-06-2022 12:05:00 23.5 C 12.9 g/m*3 23.5 C 8.1 km/h
723 12-06-2022 12:10:00 23.8 C 12.69 g/m*3 23.8 C 8.1 km/h
724 12-06-2022 12:15:00 23.9 C 12.33 g/m*3 23.9 C 4.8 km/h
725 12-06-2022 12:20:00 24.1 C 12.25 g/m*3 24.1 C 6.4 km/h
Sensor: Nr:Datum:Temp:Abs-Feuchte:Windchill:Wind:
Aussen-T/F 726 12-06-2022 12:25:00 24.2 C 12.32 g/m*3 24.2 C 11.3 km/h
727 12-06-2022 12:30:00 24.4 C 12.24 g/m*3 24.4 C 9.7 km/h
728 12-06-2022 12:35:00 24.6 C 12.83 g/m*3 24.6 C 6.4 km/h
729 12-06-2022 12:40:00 24.7 C 12.45 g/m*3 24.7 C 9.7 km/h
730 12-06-2022 12:45:00 24.8 C 12.29 g/m*3 24.8 C 8.1 km/h
731 12-06-2022 12:50:00 24.9 C 12.13 g/m*3 24.9 C 6.4 km/h
732 12-06-2022 12:55:00 25 C 12.66 g/m*3 25 C 9.7 km/h
733 12-06-2022 13:00:00 24.9 C 12.59 g/m*3 24.9 C 11.3 km/h
734 12-06-2022 13:05:00 24.8 C 12.29 g/m*3 24.8 C 4.8 km/h
735 12-06-2022 13:10:00 24.6 C 12.15 g/m*3 24.6 C 6.4 km/h
736 12-06-2022 13:15:00 24.8 C 11.84 g/m*3 24.8 C 11.3 km/h
737 12-06-2022 13:20:00 25 C 12.43 g/m*3 25 C 4.8 km/h
738 12-06-2022 13:25:00 25.3 C 12.41 g/m*3 25.3 C 8.1 km/h
739 12-06-2022 13:30:00 25.6 C 12.38 g/m*3 25.6 C 12.9 km/h
740 12-06-2022 13:35:00 25.7 C 12.21 g/m*3 25.7 C 12.9 km/h
741 12-06-2022 13:40:00 25.6 C 11.9 g/m*3 25.6 C 16.1 km/h
742 12-06-2022 13:45:00 25.6 C 11.9 g/m*3 25.6 C 8.1 km/h
743 12-06-2022 13:50:00 25.7 C 12.21 g/m*3 25.7 C 4.8 km/h
744 12-06-2022 13:55:00 25.8 C 11.32 g/m*3 25.8 C 12.9 km/h
745 12-06-2022 14:00:00 26.1 C 12.49 g/m*3 26.1 C 12.9 km/h
746 12-06-2022 14:05:00 26.2 C 11.82 g/m*3 26.2 C 11.3 km/h
747 12-06-2022 14:10:00 26.3 C 11.88 g/m*3 26.3 C 9.7 km/h
748 12-06-2022 14:15:00 26.3 C 11.88 g/m*3 26.3 C 16.1 km/h
749 12-06-2022 14:20:00 26.4 C 11.7 g/m*3 26.4 C 11.3 km/h
750 12-06-2022 14:25:00 26.4 C 11.95 g/m*3 26.4 C 14.5 km/h
Sensor: Nr:Datum:Temp:Abs-Feuchte:Windchill:Wind:
Aussen-T/F 751 12-06-2022 14:30:00 26.4 C 11.45 g/m*3 26.4 C 8.1 km/h
752 12-06-2022 14:35:00 26.4 C 11.95 g/m*3 26.4 C 12.9 km/h
753 12-06-2022 14:40:00 26.4 C 12.45 g/m*3 26.4 C 9.7 km/h
754 12-06-2022 14:45:00 26.6 C 12.08 g/m*3 26.6 C 8.1 km/h
755 12-06-2022 14:50:00 26.7 C 11.64 g/m*3 26.7 C 12.9 km/h
756 12-06-2022 14:55:00 26.8 C 11.45 g/m*3 26.8 C 12.9 km/h
757 12-06-2022 15:00:00 26.8 C 11.96 g/m*3 26.8 C 8.1 km/h
758 12-06-2022 15:05:00 26.9 C 11.52 g/m*3 26.9 C 6.4 km/h
759 12-06-2022 15:10:00 27.2 C 12.23 g/m*3 27.2 C 9.7 km/h
760 12-06-2022 15:15:00 27.5 C 11.91 g/m*3 27.5 C 9.7 km/h
761 12-06-2022 15:20:00 27.4 C 11.58 g/m*3 27.4 C 12.9 km/h
762 12-06-2022 15:25:00 27.2 C 12.23 g/m*3 27.2 C 9.7 km/h
763 12-06-2022 15:30:00 27.4 C 12.63 g/m*3 27.4 C 6.4 km/h
764 12-06-2022 15:35:00 27.3 C 12.04 g/m*3 27.3 C 11.3 km/h
765 12-06-2022 15:40:00 27.3 C 12.04 g/m*3 27.3 C 11.3 km/h
766 12-06-2022 15:45:00 27.3 C 11.77 g/m*3 27.3 C 11.3 km/h
767 12-06-2022 15:50:00 27.4 C 12.37 g/m*3 27.4 C 9.7 km/h
768 12-06-2022 15:55:00 27.6 C 12.24 g/m*3 27.6 C 11.3 km/h
769 12-06-2022 16:00:00 27.6 C 11.71 g/m*3 27.6 C 12.9 km/h
770 12-06-2022 16:05:00 27.5 C 12.17 g/m*3 27.5 C 16.1 km/h
771 12-06-2022 16:10:00 27.4 C 11.31 g/m*3 27.4 C 14.5 km/h
772 12-06-2022 16:15:00 27.4 C 11.58 g/m*3 27.4 C 14.5 km/h
773 12-06-2022 16:20:00 27.3 C 11.25 g/m*3 27.3 C 12.9 km/h
774 12-06-2022 16:25:00 27.3 C 10.99 g/m*3 27.3 C 11.3 km/h
775 12-06-2022 16:30:00 27.1 C 11.39 g/m*3 27.1 C 16.1 km/h
Sensor: Nr:Datum:Temp:Abs-Feuchte:Windchill:Wind:
Aussen-T/F 776 12-06-2022 16:35:00 27 C 11.32 g/m*3 27 C 11.3 km/h
777 12-06-2022 16:40:00 26.9 C 11.26 g/m*3 26.9 C 14.5 km/h
778 12-06-2022 16:45:00 26.9 C 10.75 g/m*3 26.9 C 14.5 km/h
779 12-06-2022 16:50:00 26.7 C 10.63 g/m*3 26.7 C 11.3 km/h
780 12-06-2022 16:55:00 26.7 C 10.63 g/m*3 26.7 C 14.5 km/h
781 12-06-2022 17:00:00 26.7 C 10.38 g/m*3 26.7 C 9.7 km/h
782 12-06-2022 17:05:00 26.9 C 10.49 g/m*3 26.9 C 8.1 km/h
783 12-06-2022 17:10:00 27.1 C 10.35 g/m*3 27.1 C 11.3 km/h
784 12-06-2022 17:15:00 27.3 C 10.73 g/m*3 27.3 C 12.9 km/h
785 12-06-2022 17:20:00 27.4 C 10.52 g/m*3 27.4 C 9.7 km/h
786 12-06-2022 17:25:00 27.4 C 10.26 g/m*3 27.4 C 11.3 km/h
787 12-06-2022 17:30:00 27.1 C 9.83 g/m*3 27.1 C 16.1 km/h
788 12-06-2022 17:35:00 26.8 C 9.93 g/m*3 26.8 C 12.9 km/h
789 12-06-2022 17:40:00 26.7 C 10.12 g/m*3 26.7 C 12.9 km/h
790 12-06-2022 17:45:00 26.7 C 9.87 g/m*3 26.7 C 12.9 km/h
791 12-06-2022 17:50:00 26.6 C 9.82 g/m*3 26.6 C 11.3 km/h
792 12-06-2022 17:55:00 26.5 C 10.01 g/m*3 26.5 C 9.7 km/h
793 12-06-2022 18:00:00 26.6 C 10.32 g/m*3 26.6 C 9.7 km/h
794 12-06-2022 18:05:00 26.6 C 9.82 g/m*3 26.6 C 16.1 km/h
795 12-06-2022 18:10:00 26.3 C 9.65 g/m*3 26.3 C 14.5 km/h
796 12-06-2022 18:15:00 26.1 C 9.55 g/m*3 26.1 C 12.9 km/h
797 12-06-2022 18:20:00 25.8 C 9.87 g/m*3 25.8 C 11.3 km/h
798 12-06-2022 18:25:00 25.8 C 9.63 g/m*3 25.8 C 11.3 km/h
799 12-06-2022 18:30:00 25.7 C 10.06 g/m*3 25.7 C 16.1 km/h
800 12-06-2022 18:35:00 25.7 C 9.82 g/m*3 25.7 C 11.3 km/h
Sensor: Nr:Datum:Temp:Abs-Feuchte:Windchill:Wind:
Aussen-T/F 801 12-06-2022 18:40:00 25.8 C 10.11 g/m*3 25.8 C 9.7 km/h
802 12-06-2022 18:45:00 25.8 C 9.87 g/m*3 25.8 C 9.7 km/h
803 12-06-2022 18:50:00 25.8 C 9.87 g/m*3 25.8 C 9.7 km/h
804 12-06-2022 18:55:00 25.6 C 10 g/m*3 25.6 C 12.9 km/h
805 12-06-2022 19:00:00 25.4 C 9.89 g/m*3 25.4 C 9.7 km/h
806 12-06-2022 19:05:00 25.3 C 9.83 g/m*3 25.3 C 11.3 km/h
807 12-06-2022 19:10:00 25.2 C 9.78 g/m*3 25.2 C 11.3 km/h
808 12-06-2022 19:15:00 25.1 C 10.19 g/m*3 25.1 C 9.7 km/h
809 12-06-2022 19:20:00 25 C 10.36 g/m*3 25 C 8.1 km/h
810 12-06-2022 19:25:00 24.9 C 10.07 g/m*3 24.9 C 9.7 km/h
811 12-06-2022 19:30:00 24.9 C 10.07 g/m*3 24.9 C 6.4 km/h
812 12-06-2022 19:35:00 24.8 C 10.02 g/m*3 24.8 C 12.9 km/h
813 12-06-2022 19:40:00 24.6 C 10.13 g/m*3 24.6 C 9.7 km/h
814 12-06-2022 19:45:00 24.6 C 10.35 g/m*3 24.6 C 6.4 km/h
815 12-06-2022 19:50:00 24.4 C 10.24 g/m*3 24.4 C 8.1 km/h
816 12-06-2022 19:55:00 24.2 C 9.9 g/m*3 24.2 C 11.3 km/h
817 12-06-2022 20:00:00 24.1 C 10.28 g/m*3 24.1 C 8.1 km/h
818 12-06-2022 20:05:00 23.8 C 10.11 g/m*3 23.8 C 9.7 km/h
819 12-06-2022 20:10:00 23.6 C 10.21 g/m*3 23.6 C 11.3 km/h
820 12-06-2022 20:15:00 23.3 C 9.83 g/m*3 23.3 C 9.7 km/h
821 12-06-2022 20:20:00 23.2 C 10.6 g/m*3 23.2 C 3.2 km/h
822 12-06-2022 20:25:00 23.1 C 10.34 g/m*3 23.1 C 6.4 km/h
823 12-06-2022 20:30:00 22.9 C 10.01 g/m*3 22.9 C 8.1 km/h
824 12-06-2022 20:35:00 22.8 C 10.16 g/m*3 22.8 C 8.1 km/h
825 12-06-2022 20:40:00 22.6 C 10.25 g/m*3 22.6 C 6.4 km/h
Sensor: Nr:Datum:Temp:Abs-Feuchte:Windchill:Wind:
Aussen-T/F 826 12-06-2022 20:45:00 22.4 C 10.33 g/m*3 22.4 C 9.7 km/h
827 12-06-2022 20:50:00 22.3 C 10.27 g/m*3 22.3 C 6.4 km/h
828 12-06-2022 20:55:00 22.2 C 10.21 g/m*3 22.2 C 4.8 km/h
829 12-06-2022 21:00:00 22.1 C 10.15 g/m*3 22.1 C 6.4 km/h
830 12-06-2022 21:05:00 21.9 C 10.42 g/m*3 21.9 C 8.1 km/h
831 12-06-2022 21:10:00 21.8 C 10.74 g/m*3 21.8 C 3.2 km/h
832 12-06-2022 21:15:00 21.7 C 10.87 g/m*3 21.7 C 3.2 km/h
833 12-06-2022 21:20:00 21.4 C 10.87 g/m*3 21.4 C 6.4 km/h
834 12-06-2022 21:25:00 21.2 C 10.75 g/m*3 21.2 C 4.8 km/h
835 12-06-2022 21:30:00 20.9 C 10.93 g/m*3 20.9 C 3.2 km/h
836 12-06-2022 21:35:00 20.5 C 10.5 g/m*3 20.5 C 3.2 km/h
837 12-06-2022 21:40:00 20.2 C 10.67 g/m*3 20.2 C 0 km/h
838 12-06-2022 21:45:00 19.8 C 10.76 g/m*3 19.8 C 4.8 km/h
839 12-06-2022 21:50:00 19.5 C 10.57 g/m*3 19.5 C 3.2 km/h
840 12-06-2022 21:55:00 19.2 C 9.89 g/m*3 19.2 C 6.4 km/h
841 12-06-2022 22:00:00 19.2 C 10.55 g/m*3 19.2 C 0 km/h
842 12-06-2022 22:05:00 19.1 C 10.66 g/m*3 19.1 C 3.2 km/h
843 12-06-2022 22:10:00 18.9 C 10.69 g/m*3 18.9 C 1.6 km/h
844 12-06-2022 22:15:00 18.8 C 10.79 g/m*3 18.8 C 0 km/h
845 12-06-2022 22:20:00 18.5 C 10.76 g/m*3 18.5 C 3.2 km/h
846 12-06-2022 22:25:00 18.2 C 10.57 g/m*3 18.2 C 0 km/h
847 12-06-2022 22:30:00 17.9 C 10.54 g/m*3 17.9 C 0 km/h
848 12-06-2022 22:35:00 17.6 C 10.2 g/m*3 17.6 C 3.2 km/h
849 12-06-2022 22:40:00 17.4 C 10.23 g/m*3 17.4 C 1.6 km/h
850 12-06-2022 22:45:00 17.2 C 10.54 g/m*3 17.2 C 4.8 km/h
Sensor: Nr:Datum:Temp:Abs-Feuchte:Windchill:Wind:
Aussen-T/F 851 12-06-2022 22:50:00 17.1 C 10.48 g/m*3 17.1 C 3.2 km/h
852 12-06-2022 22:55:00 16.9 C 10.5 g/m*3 16.9 C 1.6 km/h
853 12-06-2022 23:00:00 16.8 C 10.29 g/m*3 16.8 C 3.2 km/h
854 12-06-2022 23:05:00 16.7 C 10.52 g/m*3 16.7 C 1.6 km/h
855 12-06-2022 23:10:00 16.6 C 10.45 g/m*3 16.6 C 3.2 km/h
856 12-06-2022 23:15:00 16.4 C 10.33 g/m*3 16.4 C 3.2 km/h
857 12-06-2022 23:20:00 16.3 C 10.41 g/m*3 16.3 C 1.6 km/h
858 12-06-2022 23:25:00 16.2 C 10.48 g/m*3 16.2 C 0 km/h
859 12-06-2022 23:30:00 16.2 C 10.62 g/m*3 16.2 C 0 km/h
860 12-06-2022 23:35:00 16 C 10.49 g/m*3 16 C 1.6 km/h
861 12-06-2022 23:40:00 15.8 C 10.23 g/m*3 15.8 C 0 km/h
862 12-06-2022 23:45:00 15.7 C 10.3 g/m*3 15.7 C 1.6 km/h
863 12-06-2022 23:50:00 15.6 C 10.24 g/m*3 15.6 C 6.4 km/h
864 12-06-2022 23:55:00 15.5 C 10.18 g/m*3 15.5 C 3.2 km/h
865 13-06-2022 00:00:00 15.4 C 10.12 g/m*3 15.4 C 0 km/h
866 13-06-2022 00:05:00 15.4 C 9.99 g/m*3 15.4 C 0 km/h
867 13-06-2022 00:10:00 15.5 C 10.18 g/m*3 15.5 C 3.2 km/h
868 13-06-2022 00:15:00 15.6 C 9.97 g/m*3 15.6 C 1.6 km/h
869 13-06-2022 00:20:00 15.7 C 10.17 g/m*3 15.7 C 0 km/h
870 13-06-2022 00:25:00 15.8 C 10.23 g/m*3 15.8 C 6.4 km/h
871 13-06-2022 00:30:00 16 C 10.35 g/m*3 16 C 1.6 km/h
872 13-06-2022 00:35:00 16.1 C 10.42 g/m*3 16.1 C 0 km/h
873 13-06-2022 00:40:00 16.1 C 10.42 g/m*3 16.1 C 4.8 km/h
874 13-06-2022 00:45:00 16.1 C 10.42 g/m*3 16.1 C 4.8 km/h
875 13-06-2022 00:50:00 16.2 C 10.48 g/m*3 16.2 C 9.7 km/h
Sensor: Nr:Datum:Temp:Abs-Feuchte:Windchill:Wind:
Aussen-T/F 876 13-06-2022 00:55:00 16.2 C 10.48 g/m*3 16.2 C 4.8 km/h
877 13-06-2022 01:00:00 16.2 C 10.62 g/m*3 16.2 C 3.2 km/h
878 13-06-2022 01:05:00 16.1 C 10.42 g/m*3 16.1 C 4.8 km/h
879 13-06-2022 01:10:00 16.1 C 10.28 g/m*3 16.1 C 4.8 km/h
880 13-06-2022 01:15:00 16.1 C 10.42 g/m*3 16.1 C 1.6 km/h
881 13-06-2022 01:20:00 16.2 C 10.34 g/m*3 16.2 C 4.8 km/h
882 13-06-2022 01:25:00 16.1 C 10.28 g/m*3 16.1 C 1.6 km/h
883 13-06-2022 01:30:00 16.1 C 10.14 g/m*3 16.1 C 9.7 km/h
884 13-06-2022 01:35:00 16.1 C 10.28 g/m*3 16.1 C 8.1 km/h
885 13-06-2022 01:40:00 16.1 C 10.28 g/m*3 16.1 C 1.6 km/h
886 13-06-2022 01:45:00 16.1 C 10.28 g/m*3 16.1 C 4.8 km/h
887 13-06-2022 01:50:00 16.1 C 10.01 g/m*3 16.1 C 4.8 km/h
888 13-06-2022 01:55:00 16.2 C 10.2 g/m*3 16.2 C 1.6 km/h
889 13-06-2022 02:00:00 16.2 C 10.34 g/m*3 16.2 C 0 km/h
890 13-06-2022 02:05:00 16.2 C 10.07 g/m*3 16.2 C 1.6 km/h
891 13-06-2022 02:10:00 16.2 C 10.07 g/m*3 16.2 C 4.8 km/h
892 13-06-2022 02:15:00 16.2 C 10.2 g/m*3 16.2 C 3.2 km/h
893 13-06-2022 02:20:00 16.1 C 10.14 g/m*3 16.1 C 1.6 km/h
894 13-06-2022 02:25:00 16.1 C 10.28 g/m*3 16.1 C 0 km/h
895 13-06-2022 02:30:00 16 C 10.22 g/m*3 16 C 3.2 km/h
896 13-06-2022 02:35:00 15.9 C 10.16 g/m*3 15.9 C 3.2 km/h
897 13-06-2022 02:40:00 15.8 C 9.96 g/m*3 15.8 C 9.7 km/h
898 13-06-2022 02:45:00 15.7 C 9.9 g/m*3 15.7 C 3.2 km/h
899 13-06-2022 02:50:00 15.6 C 9.97 g/m*3 15.6 C 1.6 km/h
900 13-06-2022 02:55:00 15.5 C 9.78 g/m*3 15.5 C 3.2 km/h
Sensor: Nr:Datum:Temp:Abs-Feuchte:Windchill:Wind:
Aussen-T/F 901 13-06-2022 03:00:00 15.3 C 9.92 g/m*3 15.3 C 0 km/h
902 13-06-2022 03:05:00 15.2 C 9.73 g/m*3 15.2 C 6.4 km/h
903 13-06-2022 03:10:00 15 C 9.62 g/m*3 15 C 6.4 km/h
904 13-06-2022 03:15:00 14.9 C 9.81 g/m*3 14.9 C 0 km/h
905 13-06-2022 03:20:00 14.8 C 9.75 g/m*3 14.8 C 0 km/h
906 13-06-2022 03:25:00 14.7 C 9.82 g/m*3 14.7 C 0 km/h
907 13-06-2022 03:30:00 14.4 C 9.64 g/m*3 14.4 C 3.2 km/h
908 13-06-2022 03:35:00 14.2 C 9.65 g/m*3 14.2 C 0 km/h
909 13-06-2022 03:40:00 14 C 9.65 g/m*3 14 C 3.2 km/h
910 13-06-2022 03:45:00 13.8 C 9.65 g/m*3 13.8 C 1.6 km/h
911 13-06-2022 03:50:00 13.5 C 9.47 g/m*3 13.5 C 3.2 km/h
912 13-06-2022 03:55:00 13.3 C 9.47 g/m*3 13.3 C 3.2 km/h
913 13-06-2022 04:00:00 13.1 C 9.47 g/m*3 13.1 C 4.8 km/h
914 13-06-2022 04:05:00 12.9 C 9.35 g/m*3 12.9 C 3.2 km/h
915 13-06-2022 04:10:00 12.8 C 9.41 g/m*3 12.8 C 1.6 km/h
916 13-06-2022 04:15:00 12.7 C 9.35 g/m*3 12.7 C 0 km/h
917 13-06-2022 04:20:00 12.6 C 9.29 g/m*3 12.6 C 0 km/h
918 13-06-2022 04:25:00 12.4 C 9.29 g/m*3 12.4 C 3.2 km/h
919 13-06-2022 04:30:00 12.3 C 9.23 g/m*3 12.3 C 0 km/h
920 13-06-2022 04:35:00 12.2 C 9.28 g/m*3 12.2 C 1.6 km/h
921 13-06-2022 04:40:00 12.1 C 9.22 g/m*3 12.1 C 0 km/h
922 13-06-2022 04:45:00 12 C 9.17 g/m*3 12 C 0 km/h
923 13-06-2022 04:50:00 11.9 C 9.21 g/m*3 11.9 C 0 km/h
924 13-06-2022 04:55:00 11.8 C 9.16 g/m*3 11.8 C 0 km/h
925 13-06-2022 05:00:00 11.8 C 9.16 g/m*3 11.8 C 0 km/h
Sensor: Nr:Datum:Temp:Abs-Feuchte:Windchill:Wind:
Aussen-T/F 926 13-06-2022 05:05:00 11.7 C 9.2 g/m*3 11.7 C 0 km/h
927 13-06-2022 05:10:00 11.6 C 9.15 g/m*3 11.6 C 0 km/h
928 13-06-2022 05:15:00 11.6 C 9.15 g/m*3 11.6 C 1.6 km/h
929 13-06-2022 05:20:00 11.5 C 9.09 g/m*3 11.5 C 0 km/h
930 13-06-2022 05:25:00 11.4 C 9.03 g/m*3 11.4 C 0 km/h
931 13-06-2022 05:30:00 11.4 C 9.14 g/m*3 11.4 C 1.6 km/h
932 13-06-2022 05:35:00 11.4 C 9.14 g/m*3 11.4 C 0 km/h
933 13-06-2022 05:40:00 11.3 C 9.08 g/m*3 11.3 C 1.6 km/h
934 13-06-2022 05:45:00 11.3 C 9.08 g/m*3 11.3 C 0 km/h
935 13-06-2022 05:50:00 11.3 C 9.08 g/m*3 11.3 C 1.6 km/h
936 13-06-2022 05:55:00 11.2 C 9.12 g/m*3 11.2 C 1.6 km/h
937 13-06-2022 06:00:00 11.2 C 9.12 g/m*3 11.2 C 1.6 km/h
938 13-06-2022 06:05:00 11.2 C 9.12 g/m*3 11.2 C 3.2 km/h
939 13-06-2022 06:10:00 11.2 C 9.12 g/m*3 11.2 C 0 km/h
940 13-06-2022 06:15:00 11.2 C 9.12 g/m*3 11.2 C 1.6 km/h
941 13-06-2022 06:20:00 11.2 C 9.12 g/m*3 11.2 C 0 km/h
942 13-06-2022 06:25:00 11.1 C 9.07 g/m*3 11.1 C 0 km/h
943 13-06-2022 06:30:00 11.1 C 9.07 g/m*3 11.1 C 3.2 km/h
944 13-06-2022 06:35:00 11.1 C 9.17 g/m*3 11.1 C 0 km/h
945 13-06-2022 06:40:00 11.1 C 9.17 g/m*3 11.1 C 0 km/h
946 13-06-2022 06:45:00 11.2 C 9.22 g/m*3 11.2 C 0 km/h
947 13-06-2022 06:50:00 11.2 C 9.22 g/m*3 11.2 C 3.2 km/h
948 13-06-2022 06:55:00 11.3 C 9.28 g/m*3 11.3 C 3.2 km/h
949 13-06-2022 07:00:00 11.3 C 9.28 g/m*3 11.3 C 3.2 km/h
950 13-06-2022 07:05:00 11.4 C 9.34 g/m*3 11.4 C 0 km/h
Sensor: Nr:Datum:Temp:Abs-Feuchte:Windchill:Wind:
Aussen-T/F 951 13-06-2022 07:10:00 11.4 C 9.34 g/m*3 11.4 C 0 km/h
952 13-06-2022 07:15:00 11.4 C 9.34 g/m*3 11.4 C 1.6 km/h
953 13-06-2022 07:20:00 11.5 C 9.5 g/m*3 11.5 C 3.2 km/h
954 13-06-2022 07:25:00 11.6 C 9.56 g/m*3 11.6 C 3.2 km/h
955 13-06-2022 07:30:00 11.7 C 9.62 g/m*3 11.7 C 0 km/h
956 13-06-2022 07:35:00 11.8 C 9.68 g/m*3 11.8 C 1.6 km/h
957 13-06-2022 07:40:00 11.9 C 9.64 g/m*3 11.9 C 1.6 km/h
958 13-06-2022 07:45:00 12.1 C 9.76 g/m*3 12.1 C 6.4 km/h
959 13-06-2022 07:50:00 12.3 C 9.77 g/m*3 12.3 C 4.8 km/h
960 13-06-2022 07:55:00 12.5 C 9.89 g/m*3 12.5 C 4.8 km/h
961 13-06-2022 08:00:00 12.7 C 9.91 g/m*3 12.7 C 4.8 km/h
962 13-06-2022 08:05:00 12.9 C 9.92 g/m*3 12.9 C 4.8 km/h
963 13-06-2022 08:10:00 13.1 C 10.04 g/m*3 13.1 C 4.8 km/h
964 13-06-2022 08:15:00 13.2 C 10.1 g/m*3 13.2 C 1.6 km/h
965 13-06-2022 08:20:00 13.3 C 10.17 g/m*3 13.3 C 3.2 km/h
966 13-06-2022 08:25:00 13.3 C 10.05 g/m*3 13.3 C 3.2 km/h
967 13-06-2022 08:30:00 13.4 C 10.11 g/m*3 13.4 C 0 km/h
968 13-06-2022 08:35:00 13.6 C 10.36 g/m*3 13.6 C 0 km/h
969 13-06-2022 08:40:00 13.7 C 10.3 g/m*3 13.7 C 0 km/h
970 13-06-2022 08:45:00 13.8 C 10.37 g/m*3 13.8 C 1.6 km/h
971 13-06-2022 08:50:00 13.8 C 10.37 g/m*3 13.8 C 0 km/h
972 13-06-2022 08:55:00 13.8 C 10.37 g/m*3 13.8 C 1.6 km/h
973 13-06-2022 09:00:00 13.9 C 10.43 g/m*3 13.9 C 1.6 km/h
974 13-06-2022 09:05:00 14.2 C 10.62 g/m*3 14.2 C 0 km/h
975 13-06-2022 09:10:00 14.6 C 11.01 g/m*3 14.6 C 0 km/h
Sensor: Nr:Datum:Temp:Abs-Feuchte:Windchill:Wind:
Aussen-T/F 976 13-06-2022 09:15:00 14.8 C 10.39 g/m*3 14.8 C 4.8 km/h
977 13-06-2022 09:20:00 15.2 C 10.51 g/m*3 15.2 C 3.2 km/h
978 13-06-2022 09:25:00 15.7 C 10.3 g/m*3 15.7 C 6.4 km/h
979 13-06-2022 09:30:00 16.1 C 10.28 g/m*3 16.1 C 8.1 km/h
980 13-06-2022 09:35:00 16.4 C 10.47 g/m*3 16.4 C 8.1 km/h
981 13-06-2022 09:40:00 16.6 C 10.45 g/m*3 16.6 C 4.8 km/h
982 13-06-2022 09:45:00 16.8 C 10.44 g/m*3 16.8 C 3.2 km/h
983 13-06-2022 09:50:00 17.1 C 10.77 g/m*3 17.1 C 3.2 km/h
984 13-06-2022 09:55:00 17.3 C 10.75 g/m*3 17.3 C 3.2 km/h
985 13-06-2022 10:00:00 17.6 C 10.5 g/m*3 17.6 C 3.2 km/h
986 13-06-2022 10:05:00 17.8 C 10.47 g/m*3 17.8 C 4.8 km/h
987 13-06-2022 10:10:00 18.1 C 10.51 g/m*3 18.1 C 4.8 km/h
988 13-06-2022 10:15:00 18.3 C 10.94 g/m*3 18.3 C 3.2 km/h
989 13-06-2022 10:20:00 18.6 C 10.98 g/m*3 18.6 C 1.6 km/h
990 13-06-2022 10:25:00 18.6 C 10.66 g/m*3 18.6 C 11.3 km/h
991 13-06-2022 10:30:00 18.5 C 10.6 g/m*3 18.5 C 8.1 km/h
992 13-06-2022 10:35:00 18.4 C 10.54 g/m*3 18.4 C 3.2 km/h
993 13-06-2022 10:40:00 18.3 C 10.79 g/m*3 18.3 C 4.8 km/h
994 13-06-2022 10:45:00 18.2 C 10.57 g/m*3 18.2 C 9.7 km/h
995 13-06-2022 10:50:00 17.9 C 10.38 g/m*3 17.9 C 9.7 km/h
996 13-06-2022 10:55:00 17.8 C 10.32 g/m*3 17.8 C 8.1 km/h
997 13-06-2022 11:00:00 17.7 C 10.26 g/m*3 17.7 C 6.4 km/h
998 13-06-2022 11:05:00 17.8 C 10.47 g/m*3 17.8 C 6.4 km/h
999 13-06-2022 11:10:00 18.1 C 10.66 g/m*3 18.1 C 6.4 km/h
1000 13-06-2022 11:15:00 18.4 C 10.7 g/m*3 18.4 C 6.4 km/h
Sensor: Nr:Datum:Temp:Abs-Feuchte:Windchill:Wind:
Aussen-T/F 1001 13-06-2022 11:20:00 18.6 C 10.82 g/m*3 18.6 C 4.8 km/h
1002 13-06-2022 11:25:00 18.8 C 10.95 g/m*3 18.8 C 9.7 km/h
1003 13-06-2022 11:30:00 19.1 C 10.66 g/m*3 19.1 C 11.3 km/h
1004 13-06-2022 11:35:00 19.2 C 10.55 g/m*3 19.2 C 3.2 km/h
1005 13-06-2022 11:40:00 19.2 C 10.88 g/m*3 19.2 C 3.2 km/h
1006 13-06-2022 11:45:00 19.2 C 10.72 g/m*3 19.2 C 8.1 km/h
1007 13-06-2022 11:50:00 19.1 C 10.82 g/m*3 19.1 C 6.4 km/h
1008 13-06-2022 11:55:00 18.9 C 10.37 g/m*3 18.9 C 6.4 km/h
1009 13-06-2022 12:00:00 18.9 C 10.53 g/m*3 18.9 C 8.1 km/h
1010 13-06-2022 12:05:00 18.8 C 10.47 g/m*3 18.8 C 6.4 km/h
1011 13-06-2022 12:10:00 18.8 C 10.31 g/m*3 18.8 C 6.4 km/h
1012 13-06-2022 12:15:00 18.9 C 10.69 g/m*3 18.9 C 4.8 km/h
1013 13-06-2022 12:20:00 19.2 C 10.55 g/m*3 19.2 C 4.8 km/h
1014 13-06-2022 12:25:00 19.7 C 10.87 g/m*3 19.7 C 9.7 km/h
1015 13-06-2022 12:30:00 20.2 C 10.67 g/m*3 20.2 C 12.9 km/h
1016 13-06-2022 12:35:00 20.3 C 10.38 g/m*3 20.3 C 8.1 km/h
1017 13-06-2022 12:40:00 20.4 C 10.44 g/m*3 20.4 C 16.1 km/h
1018 13-06-2022 12:45:00 20.1 C 9.73 g/m*3 20.1 C 24.1 km/h
1019 13-06-2022 12:50:00 19.7 C 9.68 g/m*3 19.7 C 12.9 km/h
1020 13-06-2022 12:55:00 19.6 C 9.62 g/m*3 19.6 C 8.1 km/h
1021 13-06-2022 13:00:00 19.6 C 9.79 g/m*3 19.6 C 12.9 km/h
1022 13-06-2022 13:05:00 19.4 C 9.68 g/m*3 19.4 C 17.7 km/h
1023 13-06-2022 13:10:00 19.7 C 10.02 g/m*3 19.7 C 11.3 km/h
1024 13-06-2022 13:15:00 20.3 C 10.02 g/m*3 20.3 C 17.7 km/h
1025 13-06-2022 13:20:00 20.9 C 9.83 g/m*3 20.9 C 11.3 km/h
Sensor: Nr:Datum:Temp:Abs-Feuchte:Windchill:Wind:
Aussen-T/F 1026 13-06-2022 13:25:00 20.9 C 9.47 g/m*3 20.9 C 22.5 km/h
1027 13-06-2022 13:30:00 20.7 C 9.72 g/m*3 20.7 C 16.1 km/h
1028 13-06-2022 13:35:00 20.5 C 9.25 g/m*3 20.5 C 19.3 km/h
1029 13-06-2022 13:40:00 20.3 C 9.15 g/m*3 20.3 C 17.7 km/h
1030 13-06-2022 13:45:00 20.1 C 9.39 g/m*3 20.1 C 14.5 km/h
1031 13-06-2022 13:50:00 20.1 C 9.04 g/m*3 20.1 C 14.5 km/h
1032 13-06-2022 13:55:00 20.3 C 9.5 g/m*3 20.3 C 17.7 km/h
1033 13-06-2022 14:00:00 20.7 C 9.18 g/m*3 20.7 C 11.3 km/h
1034 13-06-2022 14:05:00 20.9 C 8.92 g/m*3 20.9 C 22.5 km/h
1035 13-06-2022 14:10:00 20.9 C 9.29 g/m*3 20.9 C 14.5 km/h
1036 13-06-2022 14:15:00 20.9 C 9.11 g/m*3 20.9 C 14.5 km/h
1037 13-06-2022 14:20:00 20.8 C 9.6 g/m*3 20.8 C 8.1 km/h
1038 13-06-2022 14:25:00 20.9 C 9.83 g/m*3 20.9 C 11.3 km/h
1039 13-06-2022 14:30:00 21 C 8.79 g/m*3 21 C 14.5 km/h
1040 13-06-2022 14:35:00 21 C 8.79 g/m*3 21 C 16.1 km/h
1041 13-06-2022 14:40:00 21.1 C 9.77 g/m*3 21.1 C 11.3 km/h
1042 13-06-2022 14:45:00 21.4 C 9.37 g/m*3 21.4 C 16.1 km/h
1043 13-06-2022 14:50:00 21.5 C 9.05 g/m*3 21.5 C 16.1 km/h
1044 13-06-2022 14:55:00 21.6 C 9.67 g/m*3 21.6 C 19.3 km/h
1045 13-06-2022 15:00:00 21.8 C 9.21 g/m*3 21.8 C 17.7 km/h
1046 13-06-2022 15:05:00 22.2 C 9.42 g/m*3 22.2 C 22.5 km/h
1047 13-06-2022 15:10:00 22.2 C 9.62 g/m*3 22.2 C 14.5 km/h
1048 13-06-2022 15:15:00 22.2 C 9.62 g/m*3 22.2 C 16.1 km/h
1049 13-06-2022 15:20:00 22.2 C 9.42 g/m*3 22.2 C 14.5 km/h
1050 13-06-2022 15:25:00 22.4 C 9.53 g/m*3 22.4 C 17.7 km/h
Sensor: Nr:Datum:Temp:Abs-Feuchte:Windchill:Wind:
Aussen-T/F 1051 13-06-2022 15:30:00 22.5 C 9.99 g/m*3 22.5 C 16.1 km/h
1052 13-06-2022 15:35:00 22.8 C 9.55 g/m*3 22.8 C 12.9 km/h
1053 13-06-2022 15:40:00 22.9 C 9.61 g/m*3 22.9 C 14.5 km/h
1054 13-06-2022 15:45:00 22.8 C 9.55 g/m*3 22.8 C 19.3 km/h
1055 13-06-2022 15:50:00 22.3 C 9.28 g/m*3 22.3 C 16.1 km/h
1056 13-06-2022 15:55:00 22.1 C 8.2 g/m*3 22.1 C 12.9 km/h
1057 13-06-2022 16:00:00 22.2 C 8.83 g/m*3 22.2 C 16.1 km/h
1058 13-06-2022 16:05:00 22.3 C 8.89 g/m*3 22.3 C 14.5 km/h
1059 13-06-2022 16:10:00 22.4 C 9.14 g/m*3 22.4 C 17.7 km/h
1060 13-06-2022 16:15:00 22.6 C 9.44 g/m*3 22.6 C 9.7 km/h
1061 13-06-2022 16:20:00 22.4 C 9.14 g/m*3 22.4 C 11.3 km/h
1062 13-06-2022 16:25:00 22.4 C 9.14 g/m*3 22.4 C 19.3 km/h
1063 13-06-2022 16:30:00 22 C 8.73 g/m*3 22 C 16.1 km/h
1064 13-06-2022 16:35:00 21.9 C 9.46 g/m*3 21.9 C 11.3 km/h
1065 13-06-2022 16:40:00 22.2 C 9.03 g/m*3 22.2 C 16.1 km/h
1066 13-06-2022 16:45:00 22.3 C 8.29 g/m*3 22.3 C 19.3 km/h
1067 13-06-2022 16:50:00 22.3 C 8.69 g/m*3 22.3 C 17.7 km/h
1068 13-06-2022 16:55:00 22.3 C 8.49 g/m*3 22.3 C 16.1 km/h
1069 13-06-2022 17:00:00 22.4 C 8.74 g/m*3 22.4 C 17.7 km/h
1070 13-06-2022 17:05:00 22.7 C 8.89 g/m*3 22.7 C 11.3 km/h
1071 13-06-2022 17:10:00 22.7 C 8.69 g/m*3 22.7 C 11.3 km/h
1072 13-06-2022 17:15:00 22.2 C 8.44 g/m*3 22.2 C 12.9 km/h
1073 13-06-2022 17:20:00 21.9 C 8.88 g/m*3 21.9 C 11.3 km/h
1074 13-06-2022 17:25:00 21.9 C 9.07 g/m*3 21.9 C 11.3 km/h
1075 13-06-2022 17:30:00 22.2 C 8.64 g/m*3 22.2 C 22.5 km/h
Sensor: Nr:Datum:Temp:Abs-Feuchte:Windchill:Wind:
Aussen-T/F 1076 13-06-2022 17:35:00 22.5 C 8.79 g/m*3 22.5 C 19.3 km/h
1077 13-06-2022 17:40:00 22.6 C 8.44 g/m*3 22.6 C 14.5 km/h
1078 13-06-2022 17:45:00 22.8 C 8.74 g/m*3 22.8 C 8.1 km/h
1079 13-06-2022 17:50:00 22.8 C 8.13 g/m*3 22.8 C 16.1 km/h
1080 13-06-2022 17:55:00 22.8 C 8.33 g/m*3 22.8 C 17.7 km/h
1081 13-06-2022 18:00:00 22.4 C 8.34 g/m*3 22.4 C 12.9 km/h
1082 13-06-2022 18:05:00 22.1 C 8.59 g/m*3 22.1 C 8.1 km/h
1083 13-06-2022 18:10:00 22 C 8.35 g/m*3 22 C 14.5 km/h
1084 13-06-2022 18:15:00 21.9 C 8.3 g/m*3 21.9 C 12.9 km/h
1085 13-06-2022 18:20:00 22 C 8.54 g/m*3 22 C 16.1 km/h
1086 13-06-2022 18:25:00 22.3 C 8.49 g/m*3 22.3 C 17.7 km/h
1087 13-06-2022 18:30:00 22.3 C 8.69 g/m*3 22.3 C 9.7 km/h
1088 13-06-2022 18:35:00 22.3 C 8.49 g/m*3 22.3 C 17.7 km/h
1089 13-06-2022 18:40:00 22.2 C 9.23 g/m*3 22.2 C 6.4 km/h
1090 13-06-2022 18:45:00 22.3 C 8.49 g/m*3 22.3 C 11.3 km/h
1091 13-06-2022 18:50:00 22.1 C 8.59 g/m*3 22.1 C 12.9 km/h
1092 13-06-2022 18:55:00 21.8 C 8.83 g/m*3 21.8 C 11.3 km/h
1093 13-06-2022 19:00:00 21.6 C 8.35 g/m*3 21.6 C 12.9 km/h
1094 13-06-2022 19:05:00 21.4 C 8.62 g/m*3 21.4 C 11.3 km/h
1095 13-06-2022 19:10:00 21.4 C 8.44 g/m*3 21.4 C 12.9 km/h
1096 13-06-2022 19:15:00 21.3 C 8.39 g/m*3 21.3 C 8.1 km/h
1097 13-06-2022 19:20:00 21.2 C 8.34 g/m*3 21.2 C 9.7 km/h
1098 13-06-2022 19:25:00 21.2 C 8.34 g/m*3 21.2 C 12.9 km/h
1099 13-06-2022 19:30:00 21.1 C 8.29 g/m*3 21.1 C 14.5 km/h
1100 13-06-2022 19:35:00 20.9 C 8.56 g/m*3 20.9 C 12.9 km/h
Sensor: Nr:Datum:Temp:Abs-Feuchte:Windchill:Wind:
Aussen-T/F 1101 13-06-2022 19:40:00 20.7 C 8.46 g/m*3 20.7 C 17.7 km/h
1102 13-06-2022 19:45:00 20.5 C 8.36 g/m*3 20.5 C 16.1 km/h
1103 13-06-2022 19:50:00 20.4 C 8.67 g/m*3 20.4 C 14.5 km/h
1104 13-06-2022 19:55:00 20.3 C 8.62 g/m*3 20.3 C 11.3 km/h
1105 13-06-2022 20:00:00 20.2 C 8.39 g/m*3 20.2 C 12.9 km/h
1106 13-06-2022 20:05:00 20.2 C 8.39 g/m*3 20.2 C 8.1 km/h
1107 13-06-2022 20:10:00 20.2 C 8.39 g/m*3 20.2 C 9.7 km/h
1108 13-06-2022 20:15:00 20.1 C 8.34 g/m*3 20.1 C 12.9 km/h
1109 13-06-2022 20:20:00 19.9 C 8.25 g/m*3 19.9 C 9.7 km/h
1110 13-06-2022 20:25:00 19.9 C 8.25 g/m*3 19.9 C 8.1 km/h
1111 13-06-2022 20:30:00 19.8 C 8.37 g/m*3 19.8 C 9.7 km/h
1112 13-06-2022 20:35:00 19.7 C 8.32 g/m*3 19.7 C 6.4 km/h
1113 13-06-2022 20:40:00 19.6 C 8.27 g/m*3 19.6 C 12.9 km/h
1114 13-06-2022 20:45:00 19.5 C 8.39 g/m*3 19.5 C 11.3 km/h
1115 13-06-2022 20:50:00 19.4 C 8.34 g/m*3 19.4 C 8.1 km/h
1116 13-06-2022 20:55:00 19.3 C 8.46 g/m*3 19.3 C 4.8 km/h
1117 13-06-2022 21:00:00 19.1 C 8.52 g/m*3 19.1 C 4.8 km/h
1118 13-06-2022 21:05:00 19 C 8.31 g/m*3 19 C 4.8 km/h
1119 13-06-2022 21:10:00 18.9 C 8.75 g/m*3 18.9 C 3.2 km/h
1120 13-06-2022 21:15:00 18.7 C 8.49 g/m*3 18.7 C 4.8 km/h
1121 13-06-2022 21:20:00 18.6 C 8.44 g/m*3 18.6 C 8.1 km/h
1122 13-06-2022 21:25:00 18.4 C 8.81 g/m*3 18.4 C 4.8 km/h
1123 13-06-2022 21:30:00 18.2 C 8.55 g/m*3 18.2 C 4.8 km/h
1124 13-06-2022 21:35:00 18 C 8.75 g/m*3 18 C 4.8 km/h
1125 13-06-2022 21:40:00 17.8 C 8.65 g/m*3 17.8 C 3.2 km/h
Sensor: Nr:Datum:Temp:Abs-Feuchte:Windchill:Wind:
Aussen-T/F 1126 13-06-2022 21:45:00 17.6 C 9 g/m*3 17.6 C 3.2 km/h
1127 13-06-2022 21:50:00 17.3 C 9.13 g/m*3 17.3 C 1.6 km/h
1128 13-06-2022 21:55:00 16.9 C 8.92 g/m*3 16.9 C 1.6 km/h
1129 13-06-2022 22:00:00 16.6 C 9.04 g/m*3 16.6 C 0 km/h
1130 13-06-2022 22:05:00 16.2 C 8.83 g/m*3 16.2 C 0 km/h
1131 13-06-2022 22:10:00 15.8 C 8.88 g/m*3 15.8 C 0 km/h
1132 13-06-2022 22:15:00 15.4 C 8.8 g/m*3 15.4 C 0 km/h
1133 13-06-2022 22:20:00 15.1 C 8.77 g/m*3 15.1 C 0 km/h
1134 13-06-2022 22:25:00 14.8 C 8.74 g/m*3 14.8 C 0 km/h
1135 13-06-2022 22:30:00 14.6 C 8.88 g/m*3 14.6 C 0 km/h
1136 13-06-2022 22:35:00 14.3 C 8.72 g/m*3 14.3 C 0 km/h
1137 13-06-2022 22:40:00 14.2 C 8.79 g/m*3 14.2 C 0 km/h
1138 13-06-2022 22:45:00 14 C 8.93 g/m*3 14 C 6.4 km/h
1139 13-06-2022 22:50:00 13.9 C 8.87 g/m*3 13.9 C 3.2 km/h
1140 13-06-2022 22:55:00 13.8 C 8.82 g/m*3 13.8 C 0 km/h
1141 13-06-2022 23:00:00 13.6 C 8.83 g/m*3 13.6 C 3.2 km/h
1142 13-06-2022 23:05:00 13.4 C 8.72 g/m*3 13.4 C 0 km/h
1143 13-06-2022 23:10:00 13.3 C 8.78 g/m*3 13.3 C 0 km/h
1144 13-06-2022 23:15:00 13.2 C 8.84 g/m*3 13.2 C 3.2 km/h
1145 13-06-2022 23:20:00 13.1 C 8.79 g/m*3 13.1 C 3.2 km/h
1146 13-06-2022 23:25:00 13 C 8.73 g/m*3 13 C 0 km/h
1147 13-06-2022 23:30:00 12.9 C 8.79 g/m*3 12.9 C 1.6 km/h
1148 13-06-2022 23:35:00 12.8 C 8.74 g/m*3 12.8 C 1.6 km/h
1149 13-06-2022 23:40:00 12.7 C 8.79 g/m*3 12.7 C 3.2 km/h
1150 13-06-2022 23:45:00 12.6 C 8.74 g/m*3 12.6 C 1.6 km/h
Sensor: Nr:Datum:Temp:Abs-Feuchte:Windchill:Wind:
Aussen-T/F 1151 13-06-2022 23:50:00 12.4 C 8.74 g/m*3 12.4 C 0 km/h
1152 13-06-2022 23:55:00 12.3 C 8.69 g/m*3 12.3 C 1.6 km/h
1153 14-06-2022 00:00:00 12.2 C 8.63 g/m*3 12.2 C 0 km/h
1154 14-06-2022 00:05:00 12.1 C 8.58 g/m*3 12.1 C 1.6 km/h
1155 14-06-2022 00:10:00 12 C 8.63 g/m*3 12 C 3.2 km/h
1156 14-06-2022 00:15:00 11.9 C 8.58 g/m*3 11.9 C 0 km/h
1157 14-06-2022 00:20:00 11.8 C 8.63 g/m*3 11.8 C 1.6 km/h
1158 14-06-2022 00:25:00 11.7 C 8.58 g/m*3 11.7 C 1.6 km/h
1159 14-06-2022 00:30:00 11.7 C 8.58 g/m*3 11.7 C 0 km/h
1160 14-06-2022 00:35:00 11.6 C 8.52 g/m*3 11.6 C 0 km/h
1161 14-06-2022 00:40:00 11.4 C 8.52 g/m*3 11.4 C 0 km/h
1162 14-06-2022 00:45:00 11.4 C 8.52 g/m*3 11.4 C 0 km/h
1163 14-06-2022 00:50:00 11.3 C 8.47 g/m*3 11.3 C 0 km/h
1164 14-06-2022 00:55:00 11.2 C 8.41 g/m*3 11.2 C 0 km/h
1165 14-06-2022 01:00:00 11.1 C 8.36 g/m*3 11.1 C 0 km/h
1166 14-06-2022 01:05:00 10.9 C 8.36 g/m*3 10.9 C 0 km/h
1167 14-06-2022 01:10:00 10.8 C 8.3 g/m*3 10.8 C 0 km/h
1168 14-06-2022 01:15:00 10.8 C 8.3 g/m*3 10.8 C 0 km/h
1169 14-06-2022 01:20:00 10.7 C 8.35 g/m*3 10.7 C 0 km/h
1170 14-06-2022 01:25:00 10.6 C 8.3 g/m*3 10.6 C 0 km/h
1171 14-06-2022 01:30:00 10.5 C 8.24 g/m*3 10.5 C 0 km/h
1172 14-06-2022 01:35:00 10.4 C 8.29 g/m*3 10.4 C 0 km/h
1173 14-06-2022 01:40:00 10.3 C 8.24 g/m*3 10.3 C 0 km/h
1174 14-06-2022 01:45:00 10.2 C 8.18 g/m*3 10.2 C 0 km/h
1175 14-06-2022 01:50:00 10.2 C 8.18 g/m*3 10.2 C 0 km/h
Sensor: Nr:Datum:Temp:Abs-Feuchte:Windchill:Wind:
Aussen-T/F 1176 14-06-2022 01:55:00 10.1 C 8.23 g/m*3 10.1 C 0 km/h
1177 14-06-2022 02:00:00 10 C 8.17 g/m*3 10 C 0 km/h
1178 14-06-2022 02:05:00 9.9 C 8.12 g/m*3 9.9 C 0 km/h
1179 14-06-2022 02:10:00 9.8 C 8.07 g/m*3 9.8 C 0 km/h
1180 14-06-2022 02:15:00 9.8 C 8.07 g/m*3 9.8 C 0 km/h
1181 14-06-2022 02:20:00 9.7 C 8.02 g/m*3 9.7 C 0 km/h
1182 14-06-2022 02:25:00 9.6 C 7.97 g/m*3 9.6 C 0 km/h
1183 14-06-2022 02:30:00 9.5 C 8.01 g/m*3 9.5 C 0 km/h
1184 14-06-2022 02:35:00 9.4 C 7.96 g/m*3 9.4 C 0 km/h
1185 14-06-2022 02:40:00 9.4 C 7.96 g/m*3 9.4 C 0 km/h
1186 14-06-2022 02:45:00 9.3 C 7.91 g/m*3 9.3 C 0 km/h
1187 14-06-2022 02:50:00 9.2 C 7.86 g/m*3 9.2 C 0 km/h
1188 14-06-2022 02:55:00 9.1 C 7.81 g/m*3 9.1 C 0 km/h
1189 14-06-2022 03:00:00 9.1 C 7.81 g/m*3 9.1 C 0 km/h
1190 14-06-2022 03:05:00 8.9 C 7.8 g/m*3 8.9 C 0 km/h
1191 14-06-2022 03:10:00 8.9 C 7.8 g/m*3 8.9 C 0 km/h
1192 14-06-2022 03:15:00 8.8 C 7.75 g/m*3 8.8 C 0 km/h
1193 14-06-2022 03:20:00 8.8 C 7.75 g/m*3 8.8 C 1.6 km/h
1194 14-06-2022 03:25:00 8.8 C 7.83 g/m*3 8.8 C 0 km/h
1195 14-06-2022 03:30:00 8.8 C 7.83 g/m*3 8.8 C 0 km/h
1196 14-06-2022 03:35:00 8.7 C 7.78 g/m*3 8.7 C 1.6 km/h
1197 14-06-2022 03:40:00 8.7 C 7.78 g/m*3 8.7 C 0 km/h
1198 14-06-2022 03:45:00 8.7 C 7.78 g/m*3 8.7 C 0 km/h
1199 14-06-2022 03:50:00 8.7 C 7.78 g/m*3 8.7 C 0 km/h
1200 14-06-2022 03:55:00 8.6 C 7.73 g/m*3 8.6 C 0 km/h
Sensor: Nr:Datum:Temp:Abs-Feuchte:Windchill:Wind:
Aussen-T/F 1201 14-06-2022 04:00:00 8.6 C 7.82 g/m*3 8.6 C 0 km/h
1202 14-06-2022 04:05:00 8.6 C 7.82 g/m*3 8.6 C 0 km/h
1203 14-06-2022 04:10:00 8.5 C 7.77 g/m*3 8.5 C 0 km/h
1204 14-06-2022 04:15:00 8.4 C 7.72 g/m*3 8.4 C 0 km/h
1205 14-06-2022 04:20:00 8.4 C 7.72 g/m*3 8.4 C 0 km/h
1206 14-06-2022 04:25:00 8.3 C 7.67 g/m*3 8.3 C 0 km/h
1207 14-06-2022 04:30:00 8.3 C 7.67 g/m*3 8.3 C 0 km/h
1208 14-06-2022 04:35:00 8.3 C 7.67 g/m*3 8.3 C 0 km/h
1209 14-06-2022 04:40:00 8.2 C 7.62 g/m*3 8.2 C 0 km/h
1210 14-06-2022 04:45:00 8.2 C 7.62 g/m*3 8.2 C 0 km/h
1211 14-06-2022 04:50:00 8.2 C 7.62 g/m*3 8.2 C 0 km/h
1212 14-06-2022 04:55:00 8.1 C 7.66 g/m*3 8.1 C 0 km/h
1213 14-06-2022 05:00:00 8.1 C 7.66 g/m*3 8.1 C 0 km/h
1214 14-06-2022 05:05:00 8.1 C 7.66 g/m*3 8.1 C 0 km/h
1215 14-06-2022 05:10:00 8 C 7.61 g/m*3 8 C 0 km/h
1216 14-06-2022 05:15:00 8 C 7.61 g/m*3 8 C 1.6 km/h
1217 14-06-2022 05:20:00 7.9 C 7.56 g/m*3 7.9 C 0 km/h
1218 14-06-2022 05:25:00 7.9 C 7.56 g/m*3 7.9 C 0 km/h
1219 14-06-2022 05:30:00 7.9 C 7.56 g/m*3 7.9 C 0 km/h
1220 14-06-2022 05:35:00 7.8 C 7.51 g/m*3 7.8 C 0 km/h
1221 14-06-2022 05:40:00 7.8 C 7.59 g/m*3 7.8 C 1.6 km/h
1222 14-06-2022 05:45:00 7.8 C 7.59 g/m*3 7.8 C 0 km/h
1223 14-06-2022 05:50:00 7.8 C 7.59 g/m*3 7.8 C 1.6 km/h
1224 14-06-2022 05:55:00 7.8 C 7.59 g/m*3 7.8 C 3.2 km/h
1225 14-06-2022 06:00:00 7.9 C 7.64 g/m*3 7.9 C 0 km/h
Sensor: Nr:Datum:Temp:Abs-Feuchte:Windchill:Wind:
Aussen-T/F 1226 14-06-2022 06:05:00 7.9 C 7.64 g/m*3 7.9 C 0 km/h
1227 14-06-2022 06:10:00 7.9 C 7.64 g/m*3 7.9 C 0 km/h
1228 14-06-2022 06:15:00 7.8 C 7.59 g/m*3 7.8 C 1.6 km/h
1229 14-06-2022 06:20:00 7.8 C 7.59 g/m*3 7.8 C 0 km/h
1230 14-06-2022 06:25:00 7.8 C 7.59 g/m*3 7.8 C 0 km/h
1231 14-06-2022 06:30:00 7.8 C 7.59 g/m*3 7.8 C 1.6 km/h
1232 14-06-2022 06:35:00 7.8 C 7.59 g/m*3 7.8 C 0 km/h
1233 14-06-2022 06:40:00 7.9 C 7.64 g/m*3 7.9 C 0 km/h
1234 14-06-2022 06:45:00 7.9 C 7.64 g/m*3 7.9 C 0 km/h
1235 14-06-2022 06:50:00 7.9 C 7.64 g/m*3 7.9 C 1.6 km/h
1236 14-06-2022 06:55:00 7.9 C 7.64 g/m*3 7.9 C 0 km/h
1237 14-06-2022 07:00:00 7.9 C 7.64 g/m*3 7.9 C 0 km/h
1238 14-06-2022 07:05:00 8 C 7.77 g/m*3 8 C 0 km/h
1239 14-06-2022 07:10:00 8 C 7.77 g/m*3 8 C 0 km/h
1240 14-06-2022 07:15:00 8.1 C 7.82 g/m*3 8.1 C 0 km/h
1241 14-06-2022 07:20:00 8.2 C 7.87 g/m*3 8.2 C 0 km/h
1242 14-06-2022 07:25:00 8.2 C 7.87 g/m*3 8.2 C 0 km/h
1243 14-06-2022 07:30:00 8.3 C 7.92 g/m*3 8.3 C 0 km/h
1244 14-06-2022 07:35:00 8.3 C 7.92 g/m*3 8.3 C 0 km/h
1245 14-06-2022 07:40:00 8.4 C 7.97 g/m*3 8.4 C 1.6 km/h
1246 14-06-2022 07:45:00 8.5 C 8.03 g/m*3 8.5 C 1.6 km/h
1247 14-06-2022 07:50:00 8.6 C 8.08 g/m*3 8.6 C 0 km/h
1248 14-06-2022 07:55:00 8.7 C 8.13 g/m*3 8.7 C 0 km/h
1249 14-06-2022 08:00:00 8.8 C 8.18 g/m*3 8.8 C 0 km/h
1250 14-06-2022 08:05:00 8.8 C 8.18 g/m*3 8.8 C 0 km/h
Sensor: Nr:Datum:Temp:Abs-Feuchte:Windchill:Wind:
Aussen-T/F 1251 14-06-2022 08:10:00 8.9 C 8.32 g/m*3 8.9 C 0 km/h
1252 14-06-2022 08:15:00 9 C 8.38 g/m*3 9 C 0 km/h
1253 14-06-2022 08:20:00 9.1 C 8.43 g/m*3 9.1 C 0 km/h
1254 14-06-2022 08:25:00 9.2 C 8.48 g/m*3 9.2 C 0 km/h
1255 14-06-2022 08:30:00 9.3 C 8.54 g/m*3 9.3 C 0 km/h
1256 14-06-2022 08:35:00 9.4 C 8.59 g/m*3 9.4 C 0 km/h
1257 14-06-2022 08:40:00 9.5 C 8.65 g/m*3 9.5 C 0 km/h
1258 14-06-2022 08:45:00 9.6 C 8.7 g/m*3 9.6 C 0 km/h
1259 14-06-2022 08:50:00 9.7 C 8.76 g/m*3 9.7 C 0 km/h
1260 14-06-2022 08:55:00 9.8 C 8.81 g/m*3 9.8 C 0 km/h
1261 14-06-2022 09:00:00 10 C 8.93 g/m*3 10 C 0 km/h
1262 14-06-2022 09:05:00 10.3 C 9.1 g/m*3 10.3 C 0 km/h
1263 14-06-2022 09:10:00 10.7 C 9.33 g/m*3 10.7 C 0 km/h
1264 14-06-2022 09:15:00 10.9 C 9.45 g/m*3 10.9 C 0 km/h
1265 14-06-2022 09:20:00 11.3 C 9.59 g/m*3 11.3 C 0 km/h
1266 14-06-2022 09:25:00 11.7 C 9.83 g/m*3 11.7 C 0 km/h
1267 14-06-2022 09:30:00 12.1 C 9.97 g/m*3 12.1 C 0 km/h
1268 14-06-2022 09:35:00 12.4 C 9.94 g/m*3 12.4 C 0 km/h
1269 14-06-2022 09:40:00 12.6 C 9.96 g/m*3 12.6 C 0 km/h
1270 14-06-2022 09:45:00 12.9 C 10.03 g/m*3 12.9 C 0 km/h
1271 14-06-2022 09:50:00 13.1 C 10.04 g/m*3 13.1 C 0 km/h
1272 14-06-2022 09:55:00 13.3 C 10.05 g/m*3 13.3 C 0 km/h
1273 14-06-2022 10:00:00 13.6 C 10 g/m*3 13.6 C 1.6 km/h
1274 14-06-2022 10:05:00 14 C 10.13 g/m*3 14 C 3.2 km/h
1275 14-06-2022 10:10:00 14.2 C 10.14 g/m*3 14.2 C 0 km/h
Sensor: Nr:Datum:Temp:Abs-Feuchte:Windchill:Wind:
Aussen-T/F 1276 14-06-2022 10:15:00 14.5 C 10.32 g/m*3 14.5 C 1.6 km/h
1277 14-06-2022 10:20:00 14.8 C 10.13 g/m*3 14.8 C 4.8 km/h
1278 14-06-2022 10:25:00 15.2 C 10.38 g/m*3 15.2 C 4.8 km/h
1279 14-06-2022 10:30:00 15.6 C 10.24 g/m*3 15.6 C 1.6 km/h
1280 14-06-2022 10:35:00 15.8 C 10.23 g/m*3 15.8 C 1.6 km/h
1281 14-06-2022 10:40:00 16.1 C 10.01 g/m*3 16.1 C 4.8 km/h
1282 14-06-2022 10:45:00 16.5 C 10.25 g/m*3 16.5 C 3.2 km/h
1283 14-06-2022 10:50:00 16.8 C 10.15 g/m*3 16.8 C 3.2 km/h
1284 14-06-2022 10:55:00 17.1 C 9.9 g/m*3 17.1 C 3.2 km/h
1285 14-06-2022 11:00:00 17.4 C 10.08 g/m*3 17.4 C 1.6 km/h
1286 14-06-2022 11:05:00 17.8 C 10.17 g/m*3 17.8 C 4.8 km/h
1287 14-06-2022 11:10:00 18.1 C 10.35 g/m*3 18.1 C 3.2 km/h
1288 14-06-2022 11:15:00 18.4 C 10.07 g/m*3 18.4 C 4.8 km/h
1289 14-06-2022 11:20:00 18.7 C 10.09 g/m*3 18.7 C 11.3 km/h
1290 14-06-2022 11:25:00 18.9 C 10.04 g/m*3 18.9 C 6.4 km/h
1291 14-06-2022 11:30:00 19.1 C 9.84 g/m*3 19.1 C 6.4 km/h
1292 14-06-2022 11:35:00 19.2 C 9.89 g/m*3 19.2 C 3.2 km/h
1293 14-06-2022 11:40:00 19.4 C 9.68 g/m*3 19.4 C 3.2 km/h
1294 14-06-2022 11:45:00 19.7 C 9.85 g/m*3 19.7 C 9.7 km/h
1295 14-06-2022 11:50:00 19.9 C 9.79 g/m*3 19.9 C 8.1 km/h
1296 14-06-2022 11:55:00 20.1 C 9.56 g/m*3 20.1 C 1.6 km/h
1297 14-06-2022 12:00:00 20.3 C 9.32 g/m*3 20.3 C 8.1 km/h
1298 14-06-2022 12:05:00 20.6 C 9.31 g/m*3 20.6 C 3.2 km/h
1299 14-06-2022 12:10:00 20.9 C 9.47 g/m*3 20.9 C 9.7 km/h
1300 14-06-2022 12:15:00 20.9 C 8.92 g/m*3 20.9 C 8.1 km/h
Sensor: Nr:Datum:Temp:Abs-Feuchte:Windchill:Wind:
Aussen-T/F 1301 14-06-2022 12:20:00 21 C 8.98 g/m*3 21 C 8.1 km/h
1302 14-06-2022 12:25:00 21.1 C 9.03 g/m*3 21.1 C 8.1 km/h
1303 14-06-2022 12:30:00 21.1 C 9.03 g/m*3 21.1 C 8.1 km/h
1304 14-06-2022 12:35:00 21.2 C 9.45 g/m*3 21.2 C 4.8 km/h
1305 14-06-2022 12:40:00 21.4 C 9.94 g/m*3 21.4 C 6.4 km/h
1306 14-06-2022 12:45:00 21.5 C 9.24 g/m*3 21.5 C 4.8 km/h
1307 14-06-2022 12:50:00 21.6 C 8.91 g/m*3 21.6 C 9.7 km/h
1308 14-06-2022 12:55:00 21.7 C 9.16 g/m*3 21.7 C 9.7 km/h
1309 14-06-2022 13:00:00 21.8 C 9.02 g/m*3 21.8 C 8.1 km/h
1310 14-06-2022 13:05:00 21.8 C 8.83 g/m*3 21.8 C 6.4 km/h
1311 14-06-2022 13:10:00 21.9 C 9.26 g/m*3 21.9 C 9.7 km/h
1312 14-06-2022 13:15:00 22.1 C 8.78 g/m*3 22.1 C 8.1 km/h
1313 14-06-2022 13:20:00 22.3 C 8.89 g/m*3 22.3 C 8.1 km/h
1314 14-06-2022 13:25:00 22.5 C 8.59 g/m*3 22.5 C 4.8 km/h
1315 14-06-2022 13:30:00 22.6 C 8.04 g/m*3 22.6 C 3.2 km/h
1316 14-06-2022 13:35:00 22.7 C 8.28 g/m*3 22.7 C 6.4 km/h
1317 14-06-2022 13:40:00 22.9 C 7.77 g/m*3 22.9 C 8.1 km/h
1318 14-06-2022 13:45:00 22.9 C 7.77 g/m*3 22.9 C 8.1 km/h
1319 14-06-2022 13:50:00 22.9 C 8.17 g/m*3 22.9 C 6.4 km/h
1320 14-06-2022 13:55:00 23.3 C 8.36 g/m*3 23.3 C 9.7 km/h
1321 14-06-2022 14:00:00 23.4 C 7.57 g/m*3 23.4 C 9.7 km/h
1322 14-06-2022 14:05:00 23.5 C 7.61 g/m*3 23.5 C 6.4 km/h
1323 14-06-2022 14:10:00 23.7 C 7.7 g/m*3 23.7 C 11.3 km/h
1324 14-06-2022 14:15:00 23.7 C 7.27 g/m*3 23.7 C 9.7 km/h
1325 14-06-2022 14:20:00 23.6 C 7.87 g/m*3 23.6 C 4.8 km/h
Sensor: Nr:Datum:Temp:Abs-Feuchte:Windchill:Wind:
Aussen-T/F 1326 14-06-2022 14:25:00 23.7 C 7.7 g/m*3 23.7 C 11.3 km/h
1327 14-06-2022 14:30:00 23.9 C 7.79 g/m*3 23.9 C 9.7 km/h
1328 14-06-2022 14:35:00 24.1 C 8.1 g/m*3 24.1 C 6.4 km/h
1329 14-06-2022 14:40:00 24.3 C 8.41 g/m*3 24.3 C 8.1 km/h
1330 14-06-2022 14:45:00 24.4 C 7.57 g/m*3 24.4 C 9.7 km/h
1331 14-06-2022 14:50:00 24.4 C 7.57 g/m*3 24.4 C 3.2 km/h
1332 14-06-2022 14:55:00 24.6 C 7.43 g/m*3 24.6 C 4.8 km/h
1333 14-06-2022 15:00:00 24.6 C 7.65 g/m*3 24.6 C 12.9 km/h
1334 14-06-2022 15:05:00 24.8 C 7.74 g/m*3 24.8 C 9.7 km/h
1335 14-06-2022 15:10:00 25.1 C 7.64 g/m*3 25.1 C 6.4 km/h
1336 14-06-2022 15:15:00 25.3 C 7.26 g/m*3 25.3 C 9.7 km/h
1337 14-06-2022 15:20:00 25.5 C 7.34 g/m*3 25.5 C 9.7 km/h
1338 14-06-2022 15:25:00 25.4 C 7.77 g/m*3 25.4 C 11.3 km/h
1339 14-06-2022 15:30:00 25.4 C 7.53 g/m*3 25.4 C 6.4 km/h
1340 14-06-2022 15:35:00 25.3 C 7.26 g/m*3 25.3 C 11.3 km/h
1341 14-06-2022 15:40:00 25.1 C 7.64 g/m*3 25.1 C 12.9 km/h
1342 14-06-2022 15:45:00 25.4 C 7.77 g/m*3 25.4 C 6.4 km/h
1343 14-06-2022 15:50:00 25.6 C 7.14 g/m*3 25.6 C 9.7 km/h
1344 14-06-2022 15:55:00 25.8 C 7.46 g/m*3 25.8 C 6.4 km/h
1345 14-06-2022 16:00:00 25.9 C 7.26 g/m*3 25.9 C 9.7 km/h
1346 14-06-2022 16:05:00 25.8 C 7.94 g/m*3 25.8 C 9.7 km/h
1347 14-06-2022 16:10:00 25.8 C 7.7 g/m*3 25.8 C 8.1 km/h
1348 14-06-2022 16:15:00 25.9 C 7.51 g/m*3 25.9 C 6.4 km/h
1349 14-06-2022 16:20:00 25.9 C 7.51 g/m*3 25.9 C 6.4 km/h
1350 14-06-2022 16:25:00 26.1 C 7.59 g/m*3 26.1 C 6.4 km/h
Sensor: Nr:Datum:Temp:Abs-Feuchte:Windchill:Wind:
Aussen-T/F 1351 14-06-2022 16:30:00 26.3 C 7.67 g/m*3 26.3 C 8.1 km/h
1352 14-06-2022 16:35:00 26.3 C 7.67 g/m*3 26.3 C 11.3 km/h
1353 14-06-2022 16:40:00 26.3 C 7.43 g/m*3 26.3 C 9.7 km/h
1354 14-06-2022 16:45:00 26.3 C 7.43 g/m*3 26.3 C 11.3 km/h
1355 14-06-2022 16:50:00 26.4 C 7.47 g/m*3 26.4 C 3.2 km/h
1356 14-06-2022 16:55:00 26.7 C 7.85 g/m*3 26.7 C 6.4 km/h
1357 14-06-2022 17:00:00 26.7 C 7.34 g/m*3 26.7 C 6.4 km/h
1358 14-06-2022 17:05:00 26.7 C 8.1 g/m*3 26.7 C 12.9 km/h
1359 14-06-2022 17:10:00 26.6 C 7.55 g/m*3 26.6 C 8.1 km/h
1360 14-06-2022 17:15:00 26.8 C 8.14 g/m*3 26.8 C 11.3 km/h
1361 14-06-2022 17:20:00 26.9 C 7.42 g/m*3 26.9 C 12.9 km/h
1362 14-06-2022 17:25:00 26.8 C 7.89 g/m*3 26.8 C 9.7 km/h
1363 14-06-2022 17:30:00 26.8 C 7.38 g/m*3 26.8 C 8.1 km/h
1364 14-06-2022 17:35:00 26.7 C 7.59 g/m*3 26.7 C 9.7 km/h
1365 14-06-2022 17:40:00 26.4 C 7.47 g/m*3 26.4 C 11.3 km/h
1366 14-06-2022 17:45:00 26.4 C 7.97 g/m*3 26.4 C 9.7 km/h
1367 14-06-2022 17:50:00 26.4 C 7.72 g/m*3 26.4 C 9.7 km/h
1368 14-06-2022 17:55:00 26.5 C 8.26 g/m*3 26.5 C 6.4 km/h
1369 14-06-2022 18:00:00 26.7 C 8.35 g/m*3 26.7 C 9.7 km/h
1370 14-06-2022 18:05:00 26.6 C 7.8 g/m*3 26.6 C 6.4 km/h
1371 14-06-2022 18:10:00 26.5 C 7.76 g/m*3 26.5 C 9.7 km/h
1372 14-06-2022 18:15:00 26.3 C 8.17 g/m*3 26.3 C 11.3 km/h
1373 14-06-2022 18:20:00 26.1 C 8.08 g/m*3 26.1 C 9.7 km/h
1374 14-06-2022 18:25:00 26.2 C 8.12 g/m*3 26.2 C 8.1 km/h
1375 14-06-2022 18:30:00 26.2 C 7.88 g/m*3 26.2 C 9.7 km/h
Sensor: Nr:Datum:Temp:Abs-Feuchte:Windchill:Wind:
Aussen-T/F 1376 14-06-2022 18:35:00 26.1 C 8.08 g/m*3 26.1 C 9.7 km/h
1377 14-06-2022 18:40:00 25.9 C 7.99 g/m*3 25.9 C 12.9 km/h
1378 14-06-2022 18:45:00 25.7 C 8.14 g/m*3 25.7 C 11.3 km/h
1379 14-06-2022 18:50:00 25.6 C 8.09 g/m*3 25.6 C 11.3 km/h
1380 14-06-2022 18:55:00 25.5 C 8.05 g/m*3 25.5 C 9.7 km/h
1381 14-06-2022 19:00:00 25.4 C 8 g/m*3 25.4 C 14.5 km/h
1382 14-06-2022 19:05:00 25.3 C 8.43 g/m*3 25.3 C 14.5 km/h
1383 14-06-2022 19:10:00 25.3 C 8.66 g/m*3 25.3 C 11.3 km/h
1384 14-06-2022 19:15:00 25.3 C 8.66 g/m*3 25.3 C 12.9 km/h
1385 14-06-2022 19:20:00 25.2 C 9.08 g/m*3 25.2 C 12.9 km/h
1386 14-06-2022 19:25:00 25.1 C 8.8 g/m*3 25.1 C 11.3 km/h
1387 14-06-2022 19:30:00 25 C 8.75 g/m*3 25 C 11.3 km/h
1388 14-06-2022 19:35:00 24.9 C 8.7 g/m*3 24.9 C 12.9 km/h
1389 14-06-2022 19:40:00 24.8 C 8.88 g/m*3 24.8 C 9.7 km/h
1390 14-06-2022 19:45:00 24.8 C 8.65 g/m*3 24.8 C 11.3 km/h
1391 14-06-2022 19:50:00 24.8 C 8.65 g/m*3 24.8 C 11.3 km/h
1392 14-06-2022 19:55:00 24.7 C 8.6 g/m*3 24.7 C 9.7 km/h
1393 14-06-2022 20:00:00 24.6 C 8.78 g/m*3 24.6 C 11.3 km/h
1394 14-06-2022 20:05:00 24.6 C 8.78 g/m*3 24.6 C 8.1 km/h
1395 14-06-2022 20:10:00 24.5 C 8.73 g/m*3 24.5 C 8.1 km/h
1396 14-06-2022 20:15:00 24.3 C 8.41 g/m*3 24.3 C 11.3 km/h
1397 14-06-2022 20:20:00 24.3 C 8.63 g/m*3 24.3 C 6.4 km/h
1398 14-06-2022 20:25:00 24.2 C 8.8 g/m*3 24.2 C 6.4 km/h
1399 14-06-2022 20:30:00 24 C 10.23 g/m*3 24 C 4.8 km/h
1400 14-06-2022 20:35:00 23.8 C 10.76 g/m*3 23.8 C 1.6 km/h
Sensor: Nr:Datum:Temp:Abs-Feuchte:Windchill:Wind:
Aussen-T/F 1401 14-06-2022 20:40:00 23.4 C 10.93 g/m*3 23.4 C 4.8 km/h
1402 14-06-2022 20:45:00 22.9 C 10.42 g/m*3 22.9 C 3.2 km/h
1403 14-06-2022 20:50:00 22.6 C 10.65 g/m*3 22.6 C 1.6 km/h
1404 14-06-2022 20:55:00 22.3 C 10.66 g/m*3 22.3 C 3.2 km/h
1405 14-06-2022 21:00:00 21.9 C 10.81 g/m*3 21.9 C 1.6 km/h
1406 14-06-2022 21:05:00 21.7 C 10.68 g/m*3 21.7 C 1.6 km/h
1407 14-06-2022 21:10:00 21.4 C 10.87 g/m*3 21.4 C 1.6 km/h
1408 14-06-2022 21:15:00 21.2 C 11.12 g/m*3 21.2 C 0 km/h
1409 14-06-2022 21:20:00 20.8 C 10.86 g/m*3 20.8 C 0 km/h
1410 14-06-2022 21:25:00 20.4 C 10.79 g/m*3 20.4 C 1.6 km/h
1411 14-06-2022 21:30:00 20.2 C 11.02 g/m*3 20.2 C 1.6 km/h
1412 14-06-2022 21:35:00 19.8 C 10.93 g/m*3 19.8 C 0 km/h
1413 14-06-2022 21:40:00 19.5 C 10.74 g/m*3 19.5 C 0 km/h
1414 14-06-2022 21:45:00 19.2 C 10.55 g/m*3 19.2 C 1.6 km/h
1415 14-06-2022 21:50:00 18.9 C 10.69 g/m*3 18.9 C 0 km/h
1416 14-06-2022 21:55:00 18.6 C 10.5 g/m*3 18.6 C 0 km/h
1417 14-06-2022 22:00:00 18.2 C 10.1 g/m*3 18.2 C 0 km/h
1418 14-06-2022 22:05:00 17.9 C 10.23 g/m*3 17.9 C 0 km/h
1419 14-06-2022 22:10:00 17.6 C 10.2 g/m*3 17.6 C 0 km/h
1420 14-06-2022 22:15:00 17.3 C 10.16 g/m*3 17.3 C 0 km/h
1421 14-06-2022 22:20:00 17.1 C 10.04 g/m*3 17.1 C 1.6 km/h
1422 14-06-2022 22:25:00 16.8 C 10.01 g/m*3 16.8 C 0 km/h
1423 14-06-2022 22:30:00 16.6 C 9.75 g/m*3 16.6 C 0 km/h
1424 14-06-2022 22:35:00 16.4 C 10.05 g/m*3 16.4 C 0 km/h
1425 14-06-2022 22:40:00 16.3 C 9.85 g/m*3 16.3 C 0 km/h
Sensor: Nr:Datum:Temp:Abs-Feuchte:Windchill:Wind:
Aussen-T/F 1426 14-06-2022 22:45:00 16.2 C 9.79 g/m*3 16.2 C 0 km/h
1427 14-06-2022 22:50:00 16 C 9.67 g/m*3 16 C 0 km/h
1428 14-06-2022 22:55:00 15.9 C 9.62 g/m*3 15.9 C 0 km/h
1429 14-06-2022 23:00:00 15.7 C 9.63 g/m*3 15.7 C 1.6 km/h
1430 14-06-2022 23:05:00 15.7 C 9.77 g/m*3 15.7 C 3.2 km/h
1431 14-06-2022 23:10:00 15.5 C 9.65 g/m*3 15.5 C 0 km/h
1432 14-06-2022 23:15:00 15.4 C 9.59 g/m*3 15.4 C 0 km/h
1433 14-06-2022 23:20:00 15.3 C 9.4 g/m*3 15.3 C 0 km/h
1434 14-06-2022 23:25:00 15.1 C 9.16 g/m*3 15.1 C 0 km/h
1435 14-06-2022 23:30:00 15.1 C 9.55 g/m*3 15.1 C 0 km/h
1436 14-06-2022 23:35:00 14.9 C 9.3 g/m*3 14.9 C 0 km/h
1437 14-06-2022 23:40:00 14.8 C 9.5 g/m*3 14.8 C 0 km/h
1438 14-06-2022 23:45:00 14.7 C 9.44 g/m*3 14.7 C 0 km/h
1439 14-06-2022 23:50:00 14.6 C 9.26 g/m*3 14.6 C 0 km/h
1440 14-06-2022 23:55:00 14.5 C 9.33 g/m*3 14.5 C 0 km/h

Legende:
   Min
   Max


Maximal/Minimal-Werte vom 10.06.2022 - 14.06.2022

Sensor Min Max Avg
Temp
(Aussen-T/F)
7.8 °C
14-06-2022  05:35:00
29.7 °C
11-06-2022  16:25:00
17.92 °C
Abs-Feuchte
(Aussen-T/F)
7.14 g/m*3
14-06-2022  15:50:00
17.12 g/m*3
11-06-2022  18:50:00
10.69 g/m*3
Windchill
(Aussen-T/F)
7.8 C
14-06-2022  05:35:00
29.7 C
11-06-2022  16:25:00
17.9 C

Die Daten stammen von einer Davis Vantage Pro 2 Wetter-Station und werden unter Linux mit der Software wview2wettercgi und aufbereitet. Alle Angaben erfolgen ohne Gewähr für ihre Vollständigkeit oder Richtigkeit.
Kontakt: Rainer Krienke krienke@uni-koblenz.de . Meine Webseiten an der Uni Koblenz oder privat.
Version: $Revision: 0.78 $